<?xml version="1.0" encoding="UTF-8" standalone="no" ?>
<gpx xmlns="http://www.topografix.com/GPX/1/1" xmlns:xsi="http://www.w3.org/2001/XMLSchema-instance" xsi:schemaLocation="http://www.topografix.com/GPX/1/1 http://www.topografix.com/GPX/1/1/gpx.xsd" version="1.1" creator="VisuGPX - https://www.visugpx.com">
  <metadata>
    <name>Ambrevetta   Semi Pacally</name>
    <desc><![CDATA[Ambrevetta et Pacally (moitié)]]></desc>
  </metadata>
  <trk>
    <name><![CDATA[Tardevant + Pacally ]]></name>
    <desc><![CDATA[]]></desc>
    <trkseg>
      <trkpt lat="45.92275" lon="6.48401">
        <ele>1488</ele>
        <time>2014-02-20T06:48:43.000Z</time>
      </trkpt>
      <trkpt lat="45.92279" lon="6.48404">
        <ele>1493</ele>
        <time>2014-02-20T06:48:53.000Z</time>
      </trkpt>
      <trkpt lat="45.93029" lon="6.50681">
        <ele>1793</ele>
        <time>2014-02-20T07:31:51.803Z</time>
      </trkpt>
      <trkpt lat="45.93041" lon="6.50806">
        <ele>1746</ele>
        <time>2014-02-20T07:33:42.000Z</time>
      </trkpt>
      <trkpt lat="45.93041" lon="6.50806">
        <ele>1746</ele>
        <time>2014-02-20T07:33:52.000Z</time>
      </trkpt>
      <trkpt lat="45.93034" lon="6.50814">
        <ele>1756</ele>
        <time>2014-02-20T07:34:02.000Z</time>
      </trkpt>
      <trkpt lat="45.93029" lon="6.50815">
        <ele>1757</ele>
        <time>2014-02-20T07:34:05.000Z</time>
      </trkpt>
      <trkpt lat="45.93025" lon="6.50813">
        <ele>1759</ele>
        <time>2014-02-20T07:34:25.000Z</time>
      </trkpt>
      <trkpt lat="45.9302" lon="6.50812">
        <ele>1762</ele>
        <time>2014-02-20T07:34:35.000Z</time>
      </trkpt>
      <trkpt lat="45.9302" lon="6.50819">
        <ele>1763</ele>
        <time>2014-02-20T07:34:45.000Z</time>
      </trkpt>
      <trkpt lat="45.93024" lon="6.5083">
        <ele>1761</ele>
        <time>2014-02-20T07:34:55.000Z</time>
      </trkpt>
      <trkpt lat="45.93027" lon="6.50844">
        <ele>1755</ele>
        <time>2014-02-20T07:35:05.000Z</time>
      </trkpt>
      <trkpt lat="45.93031" lon="6.50854">
        <ele>1761</ele>
        <time>2014-02-20T07:35:15.000Z</time>
      </trkpt>
      <trkpt lat="45.93036" lon="6.50855">
        <ele>1770</ele>
        <time>2014-02-20T07:35:25.000Z</time>
      </trkpt>
      <trkpt lat="45.93038" lon="6.50861">
        <ele>1771</ele>
        <time>2014-02-20T07:35:35.000Z</time>
      </trkpt>
      <trkpt lat="45.93039" lon="6.50871">
        <ele>1771</ele>
        <time>2014-02-20T07:35:45.000Z</time>
      </trkpt>
      <trkpt lat="45.93039" lon="6.50882">
        <ele>1766</ele>
        <time>2014-02-20T07:35:55.000Z</time>
      </trkpt>
      <trkpt lat="45.93041" lon="6.50888">
        <ele>1773</ele>
        <time>2014-02-20T07:36:05.000Z</time>
      </trkpt>
      <trkpt lat="45.93041" lon="6.50888">
        <ele>1780</ele>
        <time>2014-02-20T07:36:15.000Z</time>
      </trkpt>
      <trkpt lat="45.93035" lon="6.50881">
        <ele>1787</ele>
        <time>2014-02-20T07:36:25.000Z</time>
      </trkpt>
      <trkpt lat="45.93025" lon="6.5088">
        <ele>1787</ele>
        <time>2014-02-20T07:36:35.000Z</time>
      </trkpt>
      <trkpt lat="45.9302" lon="6.50877">
        <ele>1789</ele>
        <time>2014-02-20T07:36:45.000Z</time>
      </trkpt>
      <trkpt lat="45.93013" lon="6.50875">
        <ele>1790</ele>
        <time>2014-02-20T07:36:55.000Z</time>
      </trkpt>
      <trkpt lat="45.93007" lon="6.50874">
        <ele>1793</ele>
        <time>2014-02-20T07:37:05.000Z</time>
      </trkpt>
      <trkpt lat="45.93009" lon="6.50876">
        <ele>1787</ele>
        <time>2014-02-20T07:37:15.000Z</time>
      </trkpt>
      <trkpt lat="45.93013" lon="6.50887">
        <ele>1792</ele>
        <time>2014-02-20T07:37:25.000Z</time>
      </trkpt>
      <trkpt lat="45.93016" lon="6.50899">
        <ele>1794</ele>
        <time>2014-02-20T07:37:35.000Z</time>
      </trkpt>
      <trkpt lat="45.93018" lon="6.50909">
        <ele>1796</ele>
        <time>2014-02-20T07:37:45.000Z</time>
      </trkpt>
      <trkpt lat="45.93022" lon="6.50922">
        <ele>1793</ele>
        <time>2014-02-20T07:37:55.000Z</time>
      </trkpt>
      <trkpt lat="45.93026" lon="6.50935">
        <ele>1789</ele>
        <time>2014-02-20T07:38:05.000Z</time>
      </trkpt>
      <trkpt lat="45.93029" lon="6.50946">
        <ele>1795</ele>
        <time>2014-02-20T07:38:15.000Z</time>
      </trkpt>
      <trkpt lat="45.93032" lon="6.50955">
        <ele>1803</ele>
        <time>2014-02-20T07:38:25.000Z</time>
      </trkpt>
      <trkpt lat="45.93037" lon="6.50962">
        <ele>1802</ele>
        <time>2014-02-20T07:38:35.000Z</time>
      </trkpt>
      <trkpt lat="45.93037" lon="6.50971">
        <ele>1806</ele>
        <time>2014-02-20T07:38:45.000Z</time>
      </trkpt>
      <trkpt lat="45.93036" lon="6.5098">
        <ele>1809</ele>
        <time>2014-02-20T07:38:55.000Z</time>
      </trkpt>
      <trkpt lat="45.93036" lon="6.50989">
        <ele>1816</ele>
        <time>2014-02-20T07:39:05.000Z</time>
      </trkpt>
      <trkpt lat="45.93038" lon="6.51">
        <ele>1817</ele>
        <time>2014-02-20T07:39:15.000Z</time>
      </trkpt>
      <trkpt lat="45.93037" lon="6.51008">
        <ele>1821</ele>
        <time>2014-02-20T07:39:25.000Z</time>
      </trkpt>
      <trkpt lat="45.93035" lon="6.51019">
        <ele>1823</ele>
        <time>2014-02-20T07:39:35.000Z</time>
      </trkpt>
      <trkpt lat="45.93035" lon="6.51029">
        <ele>1824</ele>
        <time>2014-02-20T07:39:45.000Z</time>
      </trkpt>
      <trkpt lat="45.93033" lon="6.51041">
        <ele>1822</ele>
        <time>2014-02-20T07:39:55.000Z</time>
      </trkpt>
      <trkpt lat="45.93033" lon="6.51052">
        <ele>1825</ele>
        <time>2014-02-20T07:40:05.000Z</time>
      </trkpt>
      <trkpt lat="45.93032" lon="6.51064">
        <ele>1830</ele>
        <time>2014-02-20T07:40:15.000Z</time>
      </trkpt>
      <trkpt lat="45.93033" lon="6.51075">
        <ele>1830</ele>
        <time>2014-02-20T07:40:25.000Z</time>
      </trkpt>
      <trkpt lat="45.93033" lon="6.51087">
        <ele>1832</ele>
        <time>2014-02-20T07:40:35.000Z</time>
      </trkpt>
      <trkpt lat="45.93033" lon="6.51097">
        <ele>1836</ele>
        <time>2014-02-20T07:40:45.000Z</time>
      </trkpt>
      <trkpt lat="45.93031" lon="6.51107">
        <ele>1837</ele>
        <time>2014-02-20T07:40:55.000Z</time>
      </trkpt>
      <trkpt lat="45.93028" lon="6.51116">
        <ele>1834</ele>
        <time>2014-02-20T07:41:05.000Z</time>
      </trkpt>
      <trkpt lat="45.93026" lon="6.51127">
        <ele>1838</ele>
        <time>2014-02-20T07:41:14.000Z</time>
      </trkpt>
      <trkpt lat="45.93025" lon="6.51136">
        <ele>1842</ele>
        <time>2014-02-20T07:41:24.000Z</time>
      </trkpt>
      <trkpt lat="45.9303" lon="6.51142">
        <ele>1838</ele>
        <time>2014-02-20T07:41:34.000Z</time>
      </trkpt>
      <trkpt lat="45.93036" lon="6.5115">
        <ele>1839</ele>
        <time>2014-02-20T07:41:44.000Z</time>
      </trkpt>
      <trkpt lat="45.93039" lon="6.51156">
        <ele>1845</ele>
        <time>2014-02-20T07:41:54.000Z</time>
      </trkpt>
      <trkpt lat="45.93035" lon="6.51162">
        <ele>1848</ele>
        <time>2014-02-20T07:42:04.000Z</time>
      </trkpt>
      <trkpt lat="45.93028" lon="6.51167">
        <ele>1847</ele>
        <time>2014-02-20T07:42:14.000Z</time>
      </trkpt>
      <trkpt lat="45.93023" lon="6.51174">
        <ele>1847</ele>
        <time>2014-02-20T07:42:24.000Z</time>
      </trkpt>
      <trkpt lat="45.93014" lon="6.51179">
        <ele>1853</ele>
        <time>2014-02-20T07:42:34.000Z</time>
      </trkpt>
      <trkpt lat="45.9301" lon="6.51184">
        <ele>1854</ele>
        <time>2014-02-20T07:42:44.000Z</time>
      </trkpt>
      <trkpt lat="45.93003" lon="6.51187">
        <ele>1858</ele>
        <time>2014-02-20T07:42:54.000Z</time>
      </trkpt>
      <trkpt lat="45.92998" lon="6.51193">
        <ele>1860</ele>
        <time>2014-02-20T07:43:04.000Z</time>
      </trkpt>
      <trkpt lat="45.92992" lon="6.51199">
        <ele>1859</ele>
        <time>2014-02-20T07:43:14.000Z</time>
      </trkpt>
      <trkpt lat="45.92989" lon="6.51205">
        <ele>1862</ele>
        <time>2014-02-20T07:43:24.000Z</time>
      </trkpt>
      <trkpt lat="45.92983" lon="6.5121">
        <ele>1864</ele>
        <time>2014-02-20T07:43:34.000Z</time>
      </trkpt>
      <trkpt lat="45.92979" lon="6.51216">
        <ele>1869</ele>
        <time>2014-02-20T07:43:44.000Z</time>
      </trkpt>
      <trkpt lat="45.92972" lon="6.51225">
        <ele>1871</ele>
        <time>2014-02-20T07:43:54.000Z</time>
      </trkpt>
      <trkpt lat="45.92967" lon="6.51233">
        <ele>1871</ele>
        <time>2014-02-20T07:44:04.000Z</time>
      </trkpt>
      <trkpt lat="45.92962" lon="6.51242">
        <ele>1869</ele>
        <time>2014-02-20T07:44:14.000Z</time>
      </trkpt>
      <trkpt lat="45.92957" lon="6.51251">
        <ele>1874</ele>
        <time>2014-02-20T07:44:24.000Z</time>
      </trkpt>
      <trkpt lat="45.92955" lon="6.51259">
        <ele>1876</ele>
        <time>2014-02-20T07:44:34.000Z</time>
      </trkpt>
      <trkpt lat="45.92951" lon="6.51268">
        <ele>1877</ele>
        <time>2014-02-20T07:44:44.000Z</time>
      </trkpt>
      <trkpt lat="45.92947" lon="6.51275">
        <ele>1881</ele>
        <time>2014-02-20T07:44:54.000Z</time>
      </trkpt>
      <trkpt lat="45.92941" lon="6.51279">
        <ele>1883</ele>
        <time>2014-02-20T07:45:04.000Z</time>
      </trkpt>
      <trkpt lat="45.92934" lon="6.51284">
        <ele>1883</ele>
        <time>2014-02-20T07:45:14.000Z</time>
      </trkpt>
      <trkpt lat="45.92927" lon="6.51289">
        <ele>1885</ele>
        <time>2014-02-20T07:45:24.000Z</time>
      </trkpt>
      <trkpt lat="45.9292" lon="6.51287">
        <ele>1888</ele>
        <time>2014-02-20T07:45:34.000Z</time>
      </trkpt>
      <trkpt lat="45.92915" lon="6.51295">
        <ele>1889</ele>
        <time>2014-02-20T07:45:44.000Z</time>
      </trkpt>
      <trkpt lat="45.92914" lon="6.51303">
        <ele>1890</ele>
        <time>2014-02-20T07:45:54.000Z</time>
      </trkpt>
      <trkpt lat="45.92916" lon="6.51307">
        <ele>1897</ele>
        <time>2014-02-20T07:46:14.000Z</time>
      </trkpt>
      <trkpt lat="45.92912" lon="6.51318">
        <ele>1896</ele>
        <time>2014-02-20T07:46:24.000Z</time>
      </trkpt>
      <trkpt lat="45.92911" lon="6.51329">
        <ele>1900</ele>
        <time>2014-02-20T07:46:34.000Z</time>
      </trkpt>
      <trkpt lat="45.9291" lon="6.51341">
        <ele>1901</ele>
        <time>2014-02-20T07:46:44.000Z</time>
      </trkpt>
      <trkpt lat="45.9291" lon="6.51356">
        <ele>1902</ele>
        <time>2014-02-20T07:46:54.000Z</time>
      </trkpt>
      <trkpt lat="45.92905" lon="6.5136">
        <ele>1901</ele>
        <time>2014-02-20T07:47:04.000Z</time>
      </trkpt>
      <trkpt lat="45.92897" lon="6.51353">
        <ele>1907</ele>
        <time>2014-02-20T07:47:14.000Z</time>
      </trkpt>
      <trkpt lat="45.92893" lon="6.5135">
        <ele>1909</ele>
        <time>2014-02-20T07:47:24.000Z</time>
      </trkpt>
      <trkpt lat="45.92886" lon="6.51349">
        <ele>1912</ele>
        <time>2014-02-20T07:47:34.000Z</time>
      </trkpt>
      <trkpt lat="45.92879" lon="6.51355">
        <ele>1910</ele>
        <time>2014-02-20T07:47:44.000Z</time>
      </trkpt>
      <trkpt lat="45.92876" lon="6.51366">
        <ele>1908</ele>
        <time>2014-02-20T07:47:54.000Z</time>
      </trkpt>
      <trkpt lat="45.92878" lon="6.51374">
        <ele>1911</ele>
        <time>2014-02-20T07:48:04.000Z</time>
      </trkpt>
      <trkpt lat="45.92881" lon="6.51382">
        <ele>1909</ele>
        <time>2014-02-20T07:48:14.000Z</time>
      </trkpt>
      <trkpt lat="45.92884" lon="6.51391">
        <ele>1913</ele>
        <time>2014-02-20T07:48:24.000Z</time>
      </trkpt>
      <trkpt lat="45.92884" lon="6.514">
        <ele>1917</ele>
        <time>2014-02-20T07:48:34.000Z</time>
      </trkpt>
      <trkpt lat="45.92878" lon="6.51403">
        <ele>1916</ele>
        <time>2014-02-20T07:48:44.000Z</time>
      </trkpt>
      <trkpt lat="45.9287" lon="6.51403">
        <ele>1924</ele>
        <time>2014-02-20T07:48:54.000Z</time>
      </trkpt>
      <trkpt lat="45.92862" lon="6.51403">
        <ele>1927</ele>
        <time>2014-02-20T07:49:04.000Z</time>
      </trkpt>
      <trkpt lat="45.92854" lon="6.51401">
        <ele>1929</ele>
        <time>2014-02-20T07:49:14.000Z</time>
      </trkpt>
      <trkpt lat="45.92853" lon="6.51408">
        <ele>1930</ele>
        <time>2014-02-20T07:49:24.000Z</time>
      </trkpt>
      <trkpt lat="45.92856" lon="6.51418">
        <ele>1933</ele>
        <time>2014-02-20T07:49:34.000Z</time>
      </trkpt>
      <trkpt lat="45.92857" lon="6.51428">
        <ele>1936</ele>
        <time>2014-02-20T07:49:44.000Z</time>
      </trkpt>
      <trkpt lat="45.92858" lon="6.51436">
        <ele>1934</ele>
        <time>2014-02-20T07:49:54.000Z</time>
      </trkpt>
      <trkpt lat="45.92861" lon="6.51442">
        <ele>1935</ele>
        <time>2014-02-20T07:50:04.000Z</time>
      </trkpt>
      <trkpt lat="45.92867" lon="6.51449">
        <ele>1939</ele>
        <time>2014-02-20T07:50:14.000Z</time>
      </trkpt>
      <trkpt lat="45.92872" lon="6.51452">
        <ele>1939</ele>
        <time>2014-02-20T07:50:24.000Z</time>
      </trkpt>
      <trkpt lat="45.9288" lon="6.5146">
        <ele>1943</ele>
        <time>2014-02-20T07:50:34.000Z</time>
      </trkpt>
      <trkpt lat="45.92886" lon="6.51463">
        <ele>1944</ele>
        <time>2014-02-20T07:50:44.000Z</time>
      </trkpt>
      <trkpt lat="45.92895" lon="6.51473">
        <ele>1940</ele>
        <time>2014-02-20T07:50:54.000Z</time>
      </trkpt>
      <trkpt lat="45.92896" lon="6.51475">
        <ele>1941</ele>
        <time>2014-02-20T07:51:04.000Z</time>
      </trkpt>
      <trkpt lat="45.92896" lon="6.51481">
        <ele>1949</ele>
        <time>2014-02-20T07:51:14.000Z</time>
      </trkpt>
      <trkpt lat="45.92897" lon="6.51486">
        <ele>1940</ele>
        <time>2014-02-20T07:51:34.000Z</time>
      </trkpt>
      <trkpt lat="45.92902" lon="6.51497">
        <ele>1948</ele>
        <time>2014-02-20T07:51:44.000Z</time>
      </trkpt>
      <trkpt lat="45.92905" lon="6.51504">
        <ele>1949</ele>
        <time>2014-02-20T07:51:54.000Z</time>
      </trkpt>
      <trkpt lat="45.9291" lon="6.5151">
        <ele>1956</ele>
        <time>2014-02-20T07:52:04.000Z</time>
      </trkpt>
      <trkpt lat="45.92911" lon="6.51519">
        <ele>1953</ele>
        <time>2014-02-20T07:52:14.000Z</time>
      </trkpt>
      <trkpt lat="45.92915" lon="6.5153">
        <ele>1960</ele>
        <time>2014-02-20T07:52:24.000Z</time>
      </trkpt>
      <trkpt lat="45.92919" lon="6.51539">
        <ele>1965</ele>
        <time>2014-02-20T07:52:34.000Z</time>
      </trkpt>
      <trkpt lat="45.92922" lon="6.51546">
        <ele>1968</ele>
        <time>2014-02-20T07:52:44.000Z</time>
      </trkpt>
      <trkpt lat="45.9292" lon="6.51545">
        <ele>1969</ele>
        <time>2014-02-20T07:52:54.000Z</time>
      </trkpt>
      <trkpt lat="45.92919" lon="6.51555">
        <ele>1969</ele>
        <time>2014-02-20T07:53:04.000Z</time>
      </trkpt>
      <trkpt lat="45.9292" lon="6.51564">
        <ele>1971</ele>
        <time>2014-02-20T07:53:14.000Z</time>
      </trkpt>
      <trkpt lat="45.92918" lon="6.51572">
        <ele>1970</ele>
        <time>2014-02-20T07:53:24.000Z</time>
      </trkpt>
      <trkpt lat="45.92912" lon="6.51574">
        <ele>1977</ele>
        <time>2014-02-20T07:53:34.000Z</time>
      </trkpt>
      <trkpt lat="45.92904" lon="6.51577">
        <ele>1978</ele>
        <time>2014-02-20T07:53:44.000Z</time>
      </trkpt>
      <trkpt lat="45.929" lon="6.51574">
        <ele>1979</ele>
        <time>2014-02-20T07:53:54.000Z</time>
      </trkpt>
      <trkpt lat="45.92894" lon="6.51575">
        <ele>1986</ele>
        <time>2014-02-20T07:54:04.000Z</time>
      </trkpt>
      <trkpt lat="45.92888" lon="6.51576">
        <ele>1994</ele>
        <time>2014-02-20T07:54:14.000Z</time>
      </trkpt>
      <trkpt lat="45.92889" lon="6.51584">
        <ele>1984</ele>
        <time>2014-02-20T07:54:24.000Z</time>
      </trkpt>
      <trkpt lat="45.9289" lon="6.5159">
        <ele>1990</ele>
        <time>2014-02-20T07:54:34.000Z</time>
      </trkpt>
      <trkpt lat="45.92893" lon="6.51596">
        <ele>1991</ele>
        <time>2014-02-20T07:54:44.000Z</time>
      </trkpt>
      <trkpt lat="45.92895" lon="6.51605">
        <ele>1987</ele>
        <time>2014-02-20T07:54:54.000Z</time>
      </trkpt>
      <trkpt lat="45.92896" lon="6.51615">
        <ele>1993</ele>
        <time>2014-02-20T07:55:04.000Z</time>
      </trkpt>
      <trkpt lat="45.92898" lon="6.51624">
        <ele>1993</ele>
        <time>2014-02-20T07:55:14.000Z</time>
      </trkpt>
      <trkpt lat="45.92899" lon="6.5163">
        <ele>1995</ele>
        <time>2014-02-20T07:55:24.000Z</time>
      </trkpt>
      <trkpt lat="45.929" lon="6.51639">
        <ele>1997</ele>
        <time>2014-02-20T07:55:34.000Z</time>
      </trkpt>
      <trkpt lat="45.92901" lon="6.51647">
        <ele>1997</ele>
        <time>2014-02-20T07:55:44.000Z</time>
      </trkpt>
      <trkpt lat="45.92898" lon="6.51649">
        <ele>2003</ele>
        <time>2014-02-20T07:56:04.000Z</time>
      </trkpt>
      <trkpt lat="45.92889" lon="6.51647">
        <ele>2008</ele>
        <time>2014-02-20T07:56:14.000Z</time>
      </trkpt>
      <trkpt lat="45.92882" lon="6.51648">
        <ele>2007</ele>
        <time>2014-02-20T07:56:24.000Z</time>
      </trkpt>
      <trkpt lat="45.92873" lon="6.5165">
        <ele>2014</ele>
        <time>2014-02-20T07:56:34.000Z</time>
      </trkpt>
      <trkpt lat="45.92873" lon="6.51653">
        <ele>2007</ele>
        <time>2014-02-20T07:56:54.000Z</time>
      </trkpt>
      <trkpt lat="45.92876" lon="6.51663">
        <ele>2008</ele>
        <time>2014-02-20T07:57:04.000Z</time>
      </trkpt>
      <trkpt lat="45.92879" lon="6.51672">
        <ele>2009</ele>
        <time>2014-02-20T07:57:14.000Z</time>
      </trkpt>
      <trkpt lat="45.92882" lon="6.51682">
        <ele>2011</ele>
        <time>2014-02-20T07:57:24.000Z</time>
      </trkpt>
      <trkpt lat="45.92885" lon="6.51691">
        <ele>2014</ele>
        <time>2014-02-20T07:57:34.000Z</time>
      </trkpt>
      <trkpt lat="45.92886" lon="6.51692">
        <ele>2024</ele>
        <time>2014-02-20T07:57:44.000Z</time>
      </trkpt>
      <trkpt lat="45.92879" lon="6.51689">
        <ele>2032</ele>
        <time>2014-02-20T07:57:54.000Z</time>
      </trkpt>
      <trkpt lat="45.92875" lon="6.51689">
        <ele>2027</ele>
        <time>2014-02-20T07:58:04.000Z</time>
      </trkpt>
      <trkpt lat="45.92868" lon="6.51692">
        <ele>2028</ele>
        <time>2014-02-20T07:58:14.000Z</time>
      </trkpt>
      <trkpt lat="45.92862" lon="6.51694">
        <ele>2025</ele>
        <time>2014-02-20T07:58:24.000Z</time>
      </trkpt>
      <trkpt lat="45.92856" lon="6.51693">
        <ele>2026</ele>
        <time>2014-02-20T07:58:34.000Z</time>
      </trkpt>
      <trkpt lat="45.9285" lon="6.51692">
        <ele>2023</ele>
        <time>2014-02-20T07:58:44.000Z</time>
      </trkpt>
      <trkpt lat="45.92842" lon="6.51686">
        <ele>2030</ele>
        <time>2014-02-20T07:58:54.000Z</time>
      </trkpt>
      <trkpt lat="45.92838" lon="6.51681">
        <ele>2032</ele>
        <time>2014-02-20T07:59:04.000Z</time>
      </trkpt>
      <trkpt lat="45.92833" lon="6.51672">
        <ele>2034</ele>
        <time>2014-02-20T07:59:14.000Z</time>
      </trkpt>
      <trkpt lat="45.92826" lon="6.51667">
        <ele>2040</ele>
        <time>2014-02-20T07:59:24.000Z</time>
      </trkpt>
      <trkpt lat="45.9282" lon="6.51663">
        <ele>2048</ele>
        <time>2014-02-20T07:59:34.000Z</time>
      </trkpt>
      <trkpt lat="45.92814" lon="6.51661">
        <ele>2044</ele>
        <time>2014-02-20T07:59:44.000Z</time>
      </trkpt>
      <trkpt lat="45.92808" lon="6.51664">
        <ele>2046</ele>
        <time>2014-02-20T07:59:54.000Z</time>
      </trkpt>
      <trkpt lat="45.92811" lon="6.51666">
        <ele>2033</ele>
        <time>2014-02-20T08:00:14.000Z</time>
      </trkpt>
      <trkpt lat="45.92807" lon="6.51671">
        <ele>2040</ele>
        <time>2014-02-20T08:00:24.000Z</time>
      </trkpt>
      <trkpt lat="45.92806" lon="6.51682">
        <ele>2041</ele>
        <time>2014-02-20T08:00:34.000Z</time>
      </trkpt>
      <trkpt lat="45.92801" lon="6.51692">
        <ele>2052</ele>
        <time>2014-02-20T08:00:44.000Z</time>
      </trkpt>
      <trkpt lat="45.92794" lon="6.51698">
        <ele>2057</ele>
        <time>2014-02-20T08:00:54.000Z</time>
      </trkpt>
      <trkpt lat="45.92787" lon="6.51701">
        <ele>2055</ele>
        <time>2014-02-20T08:01:04.000Z</time>
      </trkpt>
      <trkpt lat="45.92781" lon="6.51705">
        <ele>2054</ele>
        <time>2014-02-20T08:01:14.000Z</time>
      </trkpt>
      <trkpt lat="45.92776" lon="6.51711">
        <ele>2055</ele>
        <time>2014-02-20T08:01:24.000Z</time>
      </trkpt>
      <trkpt lat="45.92769" lon="6.51718">
        <ele>2057</ele>
        <time>2014-02-20T08:01:34.000Z</time>
      </trkpt>
      <trkpt lat="45.92763" lon="6.51724">
        <ele>2058</ele>
        <time>2014-02-20T08:01:44.000Z</time>
      </trkpt>
      <trkpt lat="45.92757" lon="6.51729">
        <ele>2059</ele>
        <time>2014-02-20T08:01:54.000Z</time>
      </trkpt>
      <trkpt lat="45.92761" lon="6.51736">
        <ele>2064</ele>
        <time>2014-02-20T08:02:04.000Z</time>
      </trkpt>
      <trkpt lat="45.92767" lon="6.51744">
        <ele>2066</ele>
        <time>2014-02-20T08:02:14.000Z</time>
      </trkpt>
      <trkpt lat="45.92773" lon="6.51752">
        <ele>2063</ele>
        <time>2014-02-20T08:02:24.000Z</time>
      </trkpt>
      <trkpt lat="45.92781" lon="6.5176">
        <ele>2063</ele>
        <time>2014-02-20T08:02:34.000Z</time>
      </trkpt>
      <trkpt lat="45.92787" lon="6.51766">
        <ele>2058</ele>
        <time>2014-02-20T08:02:44.000Z</time>
      </trkpt>
      <trkpt lat="45.92786" lon="6.5176">
        <ele>2070</ele>
        <time>2014-02-20T08:03:04.000Z</time>
      </trkpt>
      <trkpt lat="45.92778" lon="6.51744">
        <ele>2119</ele>
        <time>2014-02-20T08:03:14.000Z</time>
      </trkpt>
      <trkpt lat="45.92778" lon="6.51751">
        <ele>2091</ele>
        <time>2014-02-20T08:03:24.000Z</time>
      </trkpt>
      <trkpt lat="45.92773" lon="6.51761">
        <ele>2071</ele>
        <time>2014-02-20T08:03:34.000Z</time>
      </trkpt>
      <trkpt lat="45.92769" lon="6.51768">
        <ele>2070</ele>
        <time>2014-02-20T08:03:44.000Z</time>
      </trkpt>
      <trkpt lat="45.92765" lon="6.51778">
        <ele>2069</ele>
        <time>2014-02-20T08:03:54.000Z</time>
      </trkpt>
      <trkpt lat="45.92765" lon="6.5178">
        <ele>2070</ele>
        <time>2014-02-20T08:04:04.000Z</time>
      </trkpt>
      <trkpt lat="45.92767" lon="6.51784">
        <ele>2083</ele>
        <time>2014-02-20T08:04:14.000Z</time>
      </trkpt>
      <trkpt lat="45.9277" lon="6.51792">
        <ele>2087</ele>
        <time>2014-02-20T08:04:24.000Z</time>
      </trkpt>
      <trkpt lat="45.92769" lon="6.51794">
        <ele>2080</ele>
        <time>2014-02-20T08:04:34.000Z</time>
      </trkpt>
      <trkpt lat="45.92767" lon="6.51798">
        <ele>2085</ele>
        <time>2014-02-20T08:04:44.000Z</time>
      </trkpt>
      <trkpt lat="45.92762" lon="6.51801">
        <ele>2089</ele>
        <time>2014-02-20T08:04:54.000Z</time>
      </trkpt>
      <trkpt lat="45.92759" lon="6.51805">
        <ele>2095</ele>
        <time>2014-02-20T08:05:05.000Z</time>
      </trkpt>
      <trkpt lat="45.92758" lon="6.51809">
        <ele>2094</ele>
        <time>2014-02-20T08:05:15.000Z</time>
      </trkpt>
      <trkpt lat="45.92762" lon="6.51815">
        <ele>2098</ele>
        <time>2014-02-20T08:05:25.000Z</time>
      </trkpt>
      <trkpt lat="45.92767" lon="6.51823">
        <ele>2100</ele>
        <time>2014-02-20T08:05:35.000Z</time>
      </trkpt>
      <trkpt lat="45.92773" lon="6.51828">
        <ele>2091</ele>
        <time>2014-02-20T08:05:45.000Z</time>
      </trkpt>
      <trkpt lat="45.92781" lon="6.51834">
        <ele>2095</ele>
        <time>2014-02-20T08:05:55.000Z</time>
      </trkpt>
      <trkpt lat="45.9278" lon="6.51838">
        <ele>2101</ele>
        <time>2014-02-20T08:06:14.000Z</time>
      </trkpt>
      <trkpt lat="45.92772" lon="6.51837">
        <ele>2103</ele>
        <time>2014-02-20T08:06:24.000Z</time>
      </trkpt>
      <trkpt lat="45.92765" lon="6.51839">
        <ele>2103</ele>
        <time>2014-02-20T08:06:34.000Z</time>
      </trkpt>
      <trkpt lat="45.92762" lon="6.51841">
        <ele>2102</ele>
        <time>2014-02-20T08:06:44.000Z</time>
      </trkpt>
      <trkpt lat="45.92756" lon="6.51843">
        <ele>2107</ele>
        <time>2014-02-20T08:06:54.000Z</time>
      </trkpt>
      <trkpt lat="45.92752" lon="6.51845">
        <ele>2109</ele>
        <time>2014-02-20T08:07:04.000Z</time>
      </trkpt>
      <trkpt lat="45.9275" lon="6.5184">
        <ele>2110</ele>
        <time>2014-02-20T08:07:14.000Z</time>
      </trkpt>
      <trkpt lat="45.92743" lon="6.51836">
        <ele>2130</ele>
        <time>2014-02-20T08:07:24.000Z</time>
      </trkpt>
      <trkpt lat="45.92736" lon="6.5184">
        <ele>2124</ele>
        <time>2014-02-20T08:07:34.000Z</time>
      </trkpt>
      <trkpt lat="45.92733" lon="6.51838">
        <ele>2118</ele>
        <time>2014-02-20T08:07:44.000Z</time>
      </trkpt>
      <trkpt lat="45.92727" lon="6.51838">
        <ele>2117</ele>
        <time>2014-02-20T08:07:54.000Z</time>
      </trkpt>
      <trkpt lat="45.92719" lon="6.51831">
        <ele>2115</ele>
        <time>2014-02-20T08:08:05.000Z</time>
      </trkpt>
      <trkpt lat="45.92713" lon="6.51827">
        <ele>2121</ele>
        <time>2014-02-20T08:08:15.000Z</time>
      </trkpt>
      <trkpt lat="45.92708" lon="6.51827">
        <ele>2128</ele>
        <time>2014-02-20T08:08:25.000Z</time>
      </trkpt>
      <trkpt lat="45.92702" lon="6.51829">
        <ele>2130</ele>
        <time>2014-02-20T08:08:35.000Z</time>
      </trkpt>
      <trkpt lat="45.92704" lon="6.51823">
        <ele>2116</ele>
        <time>2014-02-20T08:08:45.000Z</time>
      </trkpt>
      <trkpt lat="45.92706" lon="6.5183">
        <ele>2078</ele>
        <time>2014-02-20T08:08:55.000Z</time>
      </trkpt>
      <trkpt lat="45.92705" lon="6.51832">
        <ele>2107</ele>
        <time>2014-02-20T08:09:17.000Z</time>
      </trkpt>
      <trkpt lat="45.92695" lon="6.51829">
        <ele>2125</ele>
        <time>2014-02-20T08:09:27.000Z</time>
      </trkpt>
      <trkpt lat="45.92688" lon="6.51829">
        <ele>2133</ele>
        <time>2014-02-20T08:09:37.000Z</time>
      </trkpt>
      <trkpt lat="45.9268" lon="6.51831">
        <ele>2137</ele>
        <time>2014-02-20T08:09:47.000Z</time>
      </trkpt>
      <trkpt lat="45.92674" lon="6.51828">
        <ele>2150</ele>
        <time>2014-02-20T08:09:57.000Z</time>
      </trkpt>
      <trkpt lat="45.92665" lon="6.5183">
        <ele>2148</ele>
        <time>2014-02-20T08:10:07.000Z</time>
      </trkpt>
      <trkpt lat="45.92655" lon="6.51831">
        <ele>2143</ele>
        <time>2014-02-20T08:10:17.000Z</time>
      </trkpt>
      <trkpt lat="45.92649" lon="6.51831">
        <ele>2145</ele>
        <time>2014-02-20T08:10:27.000Z</time>
      </trkpt>
      <trkpt lat="45.92641" lon="6.51828">
        <ele>2149</ele>
        <time>2014-02-20T08:10:37.000Z</time>
      </trkpt>
      <trkpt lat="45.92634" lon="6.51833">
        <ele>2147</ele>
        <time>2014-02-20T08:10:47.000Z</time>
      </trkpt>
      <trkpt lat="45.92628" lon="6.51832">
        <ele>2146</ele>
        <time>2014-02-20T08:10:57.000Z</time>
      </trkpt>
      <trkpt lat="45.92626" lon="6.51832">
        <ele>2146</ele>
        <time>2014-02-20T08:11:04.000Z</time>
      </trkpt>
      <trkpt lat="45.92622" lon="6.5184">
        <ele>2141</ele>
        <time>2014-02-20T08:11:14.000Z</time>
      </trkpt>
      <trkpt lat="45.92621" lon="6.51846">
        <ele>2148</ele>
        <time>2014-02-20T08:11:24.000Z</time>
      </trkpt>
      <trkpt lat="45.92616" lon="6.51846">
        <ele>2151</ele>
        <time>2014-02-20T08:11:34.000Z</time>
      </trkpt>
      <trkpt lat="45.92612" lon="6.51839">
        <ele>2152</ele>
        <time>2014-02-20T08:11:44.000Z</time>
      </trkpt>
      <trkpt lat="45.92605" lon="6.51832">
        <ele>2150</ele>
        <time>2014-02-20T08:11:54.000Z</time>
      </trkpt>
      <trkpt lat="45.92601" lon="6.51822">
        <ele>2153</ele>
        <time>2014-02-20T08:12:04.000Z</time>
      </trkpt>
      <trkpt lat="45.92599" lon="6.51812">
        <ele>2155</ele>
        <time>2014-02-20T08:12:14.000Z</time>
      </trkpt>
      <trkpt lat="45.92596" lon="6.51802">
        <ele>2157</ele>
        <time>2014-02-20T08:12:24.000Z</time>
      </trkpt>
      <trkpt lat="45.92592" lon="6.51791">
        <ele>2157</ele>
        <time>2014-02-20T08:12:34.000Z</time>
      </trkpt>
      <trkpt lat="45.92589" lon="6.51785">
        <ele>2161</ele>
        <time>2014-02-20T08:12:44.000Z</time>
      </trkpt>
      <trkpt lat="45.92583" lon="6.51778">
        <ele>2159</ele>
        <time>2014-02-20T08:12:54.000Z</time>
      </trkpt>
      <trkpt lat="45.92584" lon="6.51785">
        <ele>2144</ele>
        <time>2014-02-20T08:13:04.000Z</time>
      </trkpt>
      <trkpt lat="45.92579" lon="6.51784">
        <ele>2155</ele>
        <time>2014-02-20T08:13:14.000Z</time>
      </trkpt>
      <trkpt lat="45.92572" lon="6.51776">
        <ele>2159</ele>
        <time>2014-02-20T08:13:24.000Z</time>
      </trkpt>
      <trkpt lat="45.92566" lon="6.51771">
        <ele>2160</ele>
        <time>2014-02-20T08:13:34.000Z</time>
      </trkpt>
      <trkpt lat="45.92559" lon="6.51771">
        <ele>2172</ele>
        <time>2014-02-20T08:13:44.000Z</time>
      </trkpt>
      <trkpt lat="45.92558" lon="6.51779">
        <ele>2168</ele>
        <time>2014-02-20T08:13:54.000Z</time>
      </trkpt>
      <trkpt lat="45.9256" lon="6.51793">
        <ele>2161</ele>
        <time>2014-02-20T08:14:04.000Z</time>
      </trkpt>
      <trkpt lat="45.92559" lon="6.518">
        <ele>2173</ele>
        <time>2014-02-20T08:14:14.000Z</time>
      </trkpt>
      <trkpt lat="45.92558" lon="6.51803">
        <ele>2175</ele>
        <time>2014-02-20T08:14:24.000Z</time>
      </trkpt>
      <trkpt lat="45.92555" lon="6.51811">
        <ele>2175</ele>
        <time>2014-02-20T08:14:34.000Z</time>
      </trkpt>
      <trkpt lat="45.92551" lon="6.5182">
        <ele>2174</ele>
        <time>2014-02-20T08:14:44.000Z</time>
      </trkpt>
      <trkpt lat="45.92548" lon="6.51829">
        <ele>2172</ele>
        <time>2014-02-20T08:14:54.000Z</time>
      </trkpt>
      <trkpt lat="45.92547" lon="6.51836">
        <ele>2177</ele>
        <time>2014-02-20T08:15:04.000Z</time>
      </trkpt>
      <trkpt lat="45.92547" lon="6.51843">
        <ele>2182</ele>
        <time>2014-02-20T08:15:14.000Z</time>
      </trkpt>
      <trkpt lat="45.92541" lon="6.5184">
        <ele>2184</ele>
        <time>2014-02-20T08:15:24.000Z</time>
      </trkpt>
      <trkpt lat="45.92536" lon="6.51833">
        <ele>2182</ele>
        <time>2014-02-20T08:15:34.000Z</time>
      </trkpt>
      <trkpt lat="45.92533" lon="6.51825">
        <ele>2183</ele>
        <time>2014-02-20T08:15:44.000Z</time>
      </trkpt>
      <trkpt lat="45.92527" lon="6.51824">
        <ele>2182</ele>
        <time>2014-02-20T08:15:54.000Z</time>
      </trkpt>
      <trkpt lat="45.92525" lon="6.51825">
        <ele>2177</ele>
        <time>2014-02-20T08:16:14.000Z</time>
      </trkpt>
      <trkpt lat="45.92525" lon="6.51834">
        <ele>2180</ele>
        <time>2014-02-20T08:16:24.000Z</time>
      </trkpt>
      <trkpt lat="45.92526" lon="6.51846">
        <ele>2183</ele>
        <time>2014-02-20T08:16:34.000Z</time>
      </trkpt>
      <trkpt lat="45.92524" lon="6.51853">
        <ele>2189</ele>
        <time>2014-02-20T08:16:44.000Z</time>
      </trkpt>
      <trkpt lat="45.92517" lon="6.51851">
        <ele>2187</ele>
        <time>2014-02-20T08:16:54.000Z</time>
      </trkpt>
      <trkpt lat="45.9251" lon="6.5185">
        <ele>2193</ele>
        <time>2014-02-20T08:17:04.000Z</time>
      </trkpt>
      <trkpt lat="45.9251" lon="6.51854">
        <ele>2197</ele>
        <time>2014-02-20T08:17:14.000Z</time>
      </trkpt>
      <trkpt lat="45.92511" lon="6.51863">
        <ele>2203</ele>
        <time>2014-02-20T08:17:24.000Z</time>
      </trkpt>
      <trkpt lat="45.92507" lon="6.51873">
        <ele>2206</ele>
        <time>2014-02-20T08:17:34.000Z</time>
      </trkpt>
      <trkpt lat="45.92503" lon="6.51879">
        <ele>2207</ele>
        <time>2014-02-20T08:17:44.000Z</time>
      </trkpt>
      <trkpt lat="45.92497" lon="6.51887">
        <ele>2205</ele>
        <time>2014-02-20T08:17:54.000Z</time>
      </trkpt>
      <trkpt lat="45.92492" lon="6.51896">
        <ele>2204</ele>
        <time>2014-02-20T08:18:04.000Z</time>
      </trkpt>
      <trkpt lat="45.9249" lon="6.51904">
        <ele>2208</ele>
        <time>2014-02-20T08:18:14.000Z</time>
      </trkpt>
      <trkpt lat="45.92486" lon="6.51916">
        <ele>2204</ele>
        <time>2014-02-20T08:18:24.000Z</time>
      </trkpt>
      <trkpt lat="45.92485" lon="6.51924">
        <ele>2203</ele>
        <time>2014-02-20T08:18:34.000Z</time>
      </trkpt>
      <trkpt lat="45.92485" lon="6.51934">
        <ele>2209</ele>
        <time>2014-02-20T08:18:44.000Z</time>
      </trkpt>
      <trkpt lat="45.92482" lon="6.51938">
        <ele>2217</ele>
        <time>2014-02-20T08:19:04.000Z</time>
      </trkpt>
      <trkpt lat="45.92478" lon="6.51942">
        <ele>2221</ele>
        <time>2014-02-20T08:19:14.000Z</time>
      </trkpt>
      <trkpt lat="45.92476" lon="6.51944">
        <ele>2210</ele>
        <time>2014-02-20T08:19:24.000Z</time>
      </trkpt>
      <trkpt lat="45.9248" lon="6.51957">
        <ele>2210</ele>
        <time>2014-02-20T08:19:34.000Z</time>
      </trkpt>
      <trkpt lat="45.9249" lon="6.51966">
        <ele>2217</ele>
        <time>2014-02-20T08:19:44.000Z</time>
      </trkpt>
      <trkpt lat="45.92489" lon="6.51971">
        <ele>2219</ele>
        <time>2014-02-20T08:20:04.000Z</time>
      </trkpt>
      <trkpt lat="45.92485" lon="6.51975">
        <ele>2224</ele>
        <time>2014-02-20T08:20:14.000Z</time>
      </trkpt>
      <trkpt lat="45.92484" lon="6.51977">
        <ele>2240</ele>
        <time>2014-02-20T08:20:24.000Z</time>
      </trkpt>
      <trkpt lat="45.92484" lon="6.51983">
        <ele>2229</ele>
        <time>2014-02-20T08:20:34.000Z</time>
      </trkpt>
      <trkpt lat="45.92485" lon="6.51993">
        <ele>2232</ele>
        <time>2014-02-20T08:20:44.000Z</time>
      </trkpt>
      <trkpt lat="45.92488" lon="6.52006">
        <ele>2230</ele>
        <time>2014-02-20T08:20:54.000Z</time>
      </trkpt>
      <trkpt lat="45.92487" lon="6.52017">
        <ele>2223</ele>
        <time>2014-02-20T08:21:04.000Z</time>
      </trkpt>
      <trkpt lat="45.9249" lon="6.52026">
        <ele>2227</ele>
        <time>2014-02-20T08:21:14.000Z</time>
      </trkpt>
      <trkpt lat="45.92493" lon="6.52037">
        <ele>2226</ele>
        <time>2014-02-20T08:21:24.000Z</time>
      </trkpt>
      <trkpt lat="45.92497" lon="6.52045">
        <ele>2226</ele>
        <time>2014-02-20T08:21:34.000Z</time>
      </trkpt>
      <trkpt lat="45.92495" lon="6.52045">
        <ele>2225</ele>
        <time>2014-02-20T08:21:44.000Z</time>
      </trkpt>
      <trkpt lat="45.92495" lon="6.52053">
        <ele>2229</ele>
        <time>2014-02-20T08:21:54.000Z</time>
      </trkpt>
      <trkpt lat="45.92495" lon="6.52062">
        <ele>2233</ele>
        <time>2014-02-20T08:22:04.000Z</time>
      </trkpt>
      <trkpt lat="45.92496" lon="6.5207">
        <ele>2233</ele>
        <time>2014-02-20T08:22:14.000Z</time>
      </trkpt>
      <trkpt lat="45.92496" lon="6.52079">
        <ele>2237</ele>
        <time>2014-02-20T08:22:24.000Z</time>
      </trkpt>
      <trkpt lat="45.92495" lon="6.52084">
        <ele>2243</ele>
        <time>2014-02-20T08:22:44.000Z</time>
      </trkpt>
      <trkpt lat="45.92498" lon="6.52091">
        <ele>2243</ele>
        <time>2014-02-20T08:22:54.000Z</time>
      </trkpt>
      <trkpt lat="45.92499" lon="6.52097">
        <ele>2248</ele>
        <time>2014-02-20T08:23:04.000Z</time>
      </trkpt>
      <trkpt lat="45.92499" lon="6.52099">
        <ele>2235</ele>
        <time>2014-02-20T08:23:24.000Z</time>
      </trkpt>
      <trkpt lat="45.92501" lon="6.52107">
        <ele>2237</ele>
        <time>2014-02-20T08:23:34.000Z</time>
      </trkpt>
      <trkpt lat="45.92503" lon="6.52114">
        <ele>2246</ele>
        <time>2014-02-20T08:23:44.000Z</time>
      </trkpt>
      <trkpt lat="45.92504" lon="6.5212">
        <ele>2245</ele>
        <time>2014-02-20T08:23:54.000Z</time>
      </trkpt>
      <trkpt lat="45.92505" lon="6.52124">
        <ele>2256</ele>
        <time>2014-02-20T08:24:14.000Z</time>
      </trkpt>
      <trkpt lat="45.92504" lon="6.52127">
        <ele>2260</ele>
        <time>2014-02-20T08:24:24.000Z</time>
      </trkpt>
      <trkpt lat="45.92502" lon="6.52131">
        <ele>2249</ele>
        <time>2014-02-20T08:24:34.000Z</time>
      </trkpt>
      <trkpt lat="45.9251" lon="6.52138">
        <ele>2257</ele>
        <time>2014-02-20T08:24:44.000Z</time>
      </trkpt>
      <trkpt lat="45.92509" lon="6.52141">
        <ele>2246</ele>
        <time>2014-02-20T08:24:54.000Z</time>
      </trkpt>
      <trkpt lat="45.92508" lon="6.52146">
        <ele>2267</ele>
        <time>2014-02-20T08:25:04.000Z</time>
      </trkpt>
      <trkpt lat="45.9251" lon="6.52146">
        <ele>2248</ele>
        <time>2014-02-20T08:25:34.000Z</time>
      </trkpt>
      <trkpt lat="45.92502" lon="6.52139">
        <ele>2259</ele>
        <time>2014-02-20T08:25:44.000Z</time>
      </trkpt>
      <trkpt lat="45.92504" lon="6.52141">
        <ele>2277</ele>
        <time>2014-02-20T08:26:14.000Z</time>
      </trkpt>
      <trkpt lat="45.92496" lon="6.52136">
        <ele>2251</ele>
        <time>2014-02-20T08:26:24.000Z</time>
      </trkpt>
      <trkpt lat="45.92496" lon="6.52134">
        <ele>2245</ele>
        <time>2014-02-20T08:26:34.000Z</time>
      </trkpt>
      <trkpt lat="45.92492" lon="6.52134">
        <ele>2265</ele>
        <time>2014-02-20T08:26:44.000Z</time>
      </trkpt>
      <trkpt lat="45.92491" lon="6.52136">
        <ele>2225</ele>
        <time>2014-02-20T08:27:04.000Z</time>
      </trkpt>
      <trkpt lat="45.92495" lon="6.52141">
        <ele>2218</ele>
        <time>2014-02-20T08:27:14.000Z</time>
      </trkpt>
      <trkpt lat="45.92496" lon="6.52144">
        <ele>2236</ele>
        <time>2014-02-20T08:27:44.000Z</time>
      </trkpt>
      <trkpt lat="45.92498" lon="6.52147">
        <ele>2271</ele>
        <time>2014-02-20T08:27:54.000Z</time>
      </trkpt>
      <trkpt lat="45.92497" lon="6.52147">
        <ele>2291</ele>
        <time>2014-02-20T08:28:04.000Z</time>
      </trkpt>
      <trkpt lat="45.92493" lon="6.52165">
        <ele>2283</ele>
        <time>2014-02-20T08:28:14.000Z</time>
      </trkpt>
      <trkpt lat="45.92496" lon="6.52168">
        <ele>2259</ele>
        <time>2014-02-20T08:28:34.000Z</time>
      </trkpt>
      <trkpt lat="45.92503" lon="6.5217">
        <ele>2255</ele>
        <time>2014-02-20T08:28:44.000Z</time>
      </trkpt>
      <trkpt lat="45.925" lon="6.52165">
        <ele>2241</ele>
        <time>2014-02-20T08:28:54.000Z</time>
      </trkpt>
      <trkpt lat="45.92505" lon="6.52162">
        <ele>2244</ele>
        <time>2014-02-20T08:29:04.000Z</time>
      </trkpt>
      <trkpt lat="45.92506" lon="6.5216">
        <ele>2250</ele>
        <time>2014-02-20T08:29:14.000Z</time>
      </trkpt>
      <trkpt lat="45.92504" lon="6.52149">
        <ele>2255</ele>
        <time>2014-02-20T08:29:24.000Z</time>
      </trkpt>
      <trkpt lat="45.92502" lon="6.5214">
        <ele>2248</ele>
        <time>2014-02-20T08:29:34.000Z</time>
      </trkpt>
      <trkpt lat="45.92502" lon="6.52137">
        <ele>2262</ele>
        <time>2014-02-20T08:30:44.000Z</time>
      </trkpt>
      <trkpt lat="45.92506" lon="6.5213">
        <ele>2263</ele>
        <time>2014-02-20T08:30:54.000Z</time>
      </trkpt>
      <trkpt lat="45.92502" lon="6.5213">
        <ele>2261</ele>
        <time>2014-02-20T08:31:14.000Z</time>
      </trkpt>
      <trkpt lat="45.92501" lon="6.52129">
        <ele>2260</ele>
        <time>2014-02-20T08:31:24.000Z</time>
      </trkpt>
      <trkpt lat="45.92505" lon="6.52132">
        <ele>2265</ele>
        <time>2014-02-20T08:31:44.000Z</time>
      </trkpt>
      <trkpt lat="45.92506" lon="6.52132">
        <ele>2266</ele>
        <time>2014-02-20T08:31:54.000Z</time>
      </trkpt>
      <trkpt lat="45.92505" lon="6.52132">
        <ele>2269</ele>
        <time>2014-02-20T08:32:14.000Z</time>
      </trkpt>
      <trkpt lat="45.92499" lon="6.52148">
        <ele>2264</ele>
        <time>2014-02-20T08:32:24.000Z</time>
      </trkpt>
      <trkpt lat="45.92498" lon="6.52157">
        <ele>2262</ele>
        <time>2014-02-20T08:32:34.000Z</time>
      </trkpt>
      <trkpt lat="45.92496" lon="6.52167">
        <ele>2264</ele>
        <time>2014-02-20T08:32:44.000Z</time>
      </trkpt>
      <trkpt lat="45.9249" lon="6.52177">
        <ele>2268</ele>
        <time>2014-02-20T08:32:54.000Z</time>
      </trkpt>
      <trkpt lat="45.92485" lon="6.52185">
        <ele>2269</ele>
        <time>2014-02-20T08:33:04.000Z</time>
      </trkpt>
      <trkpt lat="45.92484" lon="6.52193">
        <ele>2270</ele>
        <time>2014-02-20T08:33:14.000Z</time>
      </trkpt>
      <trkpt lat="45.92484" lon="6.52203">
        <ele>2275</ele>
        <time>2014-02-20T08:33:24.000Z</time>
      </trkpt>
      <trkpt lat="45.92482" lon="6.52212">
        <ele>2277</ele>
        <time>2014-02-20T08:33:34.000Z</time>
      </trkpt>
      <trkpt lat="45.9248" lon="6.52224">
        <ele>2277</ele>
        <time>2014-02-20T08:33:44.000Z</time>
      </trkpt>
      <trkpt lat="45.92479" lon="6.52234">
        <ele>2282</ele>
        <time>2014-02-20T08:33:54.000Z</time>
      </trkpt>
      <trkpt lat="45.92477" lon="6.52246">
        <ele>2283</ele>
        <time>2014-02-20T08:34:04.000Z</time>
      </trkpt>
      <trkpt lat="45.92476" lon="6.5226">
        <ele>2285</ele>
        <time>2014-02-20T08:34:14.000Z</time>
      </trkpt>
      <trkpt lat="45.92473" lon="6.5227">
        <ele>2284</ele>
        <time>2014-02-20T08:34:24.000Z</time>
      </trkpt>
      <trkpt lat="45.92469" lon="6.5228">
        <ele>2281</ele>
        <time>2014-02-20T08:34:34.000Z</time>
      </trkpt>
      <trkpt lat="45.92468" lon="6.52293">
        <ele>2282</ele>
        <time>2014-02-20T08:34:44.000Z</time>
      </trkpt>
      <trkpt lat="45.92465" lon="6.523">
        <ele>2287</ele>
        <time>2014-02-20T08:34:54.000Z</time>
      </trkpt>
      <trkpt lat="45.92462" lon="6.52309">
        <ele>2288</ele>
        <time>2014-02-20T08:35:04.000Z</time>
      </trkpt>
      <trkpt lat="45.92458" lon="6.52318">
        <ele>2292</ele>
        <time>2014-02-20T08:35:14.000Z</time>
      </trkpt>
      <trkpt lat="45.92457" lon="6.52328">
        <ele>2293</ele>
        <time>2014-02-20T08:35:24.000Z</time>
      </trkpt>
      <trkpt lat="45.92453" lon="6.52335">
        <ele>2294</ele>
        <time>2014-02-20T08:35:34.000Z</time>
      </trkpt>
      <trkpt lat="45.92453" lon="6.52346">
        <ele>2280</ele>
        <time>2014-02-20T08:35:44.000Z</time>
      </trkpt>
      <trkpt lat="45.92451" lon="6.52352">
        <ele>2293</ele>
        <time>2014-02-20T08:35:54.000Z</time>
      </trkpt>
      <trkpt lat="45.92451" lon="6.52359">
        <ele>2295</ele>
        <time>2014-02-20T08:36:04.000Z</time>
      </trkpt>
      <trkpt lat="45.9245" lon="6.5237">
        <ele>2299</ele>
        <time>2014-02-20T08:36:14.000Z</time>
      </trkpt>
      <trkpt lat="45.92451" lon="6.52382">
        <ele>2301</ele>
        <time>2014-02-20T08:36:24.000Z</time>
      </trkpt>
      <trkpt lat="45.92452" lon="6.52394">
        <ele>2302</ele>
        <time>2014-02-20T08:36:34.000Z</time>
      </trkpt>
      <trkpt lat="45.92451" lon="6.52401">
        <ele>2304</ele>
        <time>2014-02-20T08:36:44.000Z</time>
      </trkpt>
      <trkpt lat="45.92449" lon="6.52411">
        <ele>2306</ele>
        <time>2014-02-20T08:36:54.000Z</time>
      </trkpt>
      <trkpt lat="45.92451" lon="6.52424">
        <ele>2306</ele>
        <time>2014-02-20T08:37:04.000Z</time>
      </trkpt>
      <trkpt lat="45.92452" lon="6.52439">
        <ele>2307</ele>
        <time>2014-02-20T08:37:14.000Z</time>
      </trkpt>
      <trkpt lat="45.92452" lon="6.52449">
        <ele>2309</ele>
        <time>2014-02-20T08:37:24.000Z</time>
      </trkpt>
      <trkpt lat="45.92449" lon="6.52462">
        <ele>2306</ele>
        <time>2014-02-20T08:37:34.000Z</time>
      </trkpt>
      <trkpt lat="45.92446" lon="6.52472">
        <ele>2312</ele>
        <time>2014-02-20T08:37:44.000Z</time>
      </trkpt>
      <trkpt lat="45.92447" lon="6.52482">
        <ele>2310</ele>
        <time>2014-02-20T08:37:54.000Z</time>
      </trkpt>
      <trkpt lat="45.92444" lon="6.52492">
        <ele>2310</ele>
        <time>2014-02-20T08:38:04.000Z</time>
      </trkpt>
      <trkpt lat="45.92443" lon="6.52501">
        <ele>2314</ele>
        <time>2014-02-20T08:38:14.000Z</time>
      </trkpt>
      <trkpt lat="45.92444" lon="6.52509">
        <ele>2320</ele>
        <time>2014-02-20T08:38:24.000Z</time>
      </trkpt>
      <trkpt lat="45.92442" lon="6.52523">
        <ele>2318</ele>
        <time>2014-02-20T08:38:34.000Z</time>
      </trkpt>
      <trkpt lat="45.92437" lon="6.52531">
        <ele>2317</ele>
        <time>2014-02-20T08:38:44.000Z</time>
      </trkpt>
      <trkpt lat="45.92441" lon="6.52533">
        <ele>2313</ele>
        <time>2014-02-20T08:39:04.000Z</time>
      </trkpt>
      <trkpt lat="45.92446" lon="6.52532">
        <ele>2312</ele>
        <time>2014-02-20T08:39:14.000Z</time>
      </trkpt>
      <trkpt lat="45.92446" lon="6.52537">
        <ele>2312</ele>
        <time>2014-02-20T08:39:24.000Z</time>
      </trkpt>
      <trkpt lat="45.92444" lon="6.52539">
        <ele>2321</ele>
        <time>2014-02-20T08:39:34.000Z</time>
      </trkpt>
      <trkpt lat="45.92442" lon="6.52545">
        <ele>2322</ele>
        <time>2014-02-20T08:39:44.000Z</time>
      </trkpt>
      <trkpt lat="45.92443" lon="6.52549">
        <ele>2322</ele>
        <time>2014-02-20T08:39:54.000Z</time>
      </trkpt>
      <trkpt lat="45.92449" lon="6.5255">
        <ele>2316</ele>
        <time>2014-02-20T08:40:04.000Z</time>
      </trkpt>
      <trkpt lat="45.92449" lon="6.52554">
        <ele>2323</ele>
        <time>2014-02-20T08:40:24.000Z</time>
      </trkpt>
      <trkpt lat="45.92448" lon="6.52559">
        <ele>2334</ele>
        <time>2014-02-20T08:40:34.000Z</time>
      </trkpt>
      <trkpt lat="45.92446" lon="6.52565">
        <ele>2335</ele>
        <time>2014-02-20T08:40:44.000Z</time>
      </trkpt>
      <trkpt lat="45.92441" lon="6.52573">
        <ele>2330</ele>
        <time>2014-02-20T08:40:54.000Z</time>
      </trkpt>
      <trkpt lat="45.92439" lon="6.52582">
        <ele>2336</ele>
        <time>2014-02-20T08:41:04.000Z</time>
      </trkpt>
      <trkpt lat="45.92436" lon="6.52588">
        <ele>2341</ele>
        <time>2014-02-20T08:41:14.000Z</time>
      </trkpt>
      <trkpt lat="45.92431" lon="6.52595">
        <ele>2342</ele>
        <time>2014-02-20T08:41:24.000Z</time>
      </trkpt>
      <trkpt lat="45.92427" lon="6.52602">
        <ele>2344</ele>
        <time>2014-02-20T08:41:34.000Z</time>
      </trkpt>
      <trkpt lat="45.92423" lon="6.5261">
        <ele>2347</ele>
        <time>2014-02-20T08:41:44.000Z</time>
      </trkpt>
      <trkpt lat="45.92423" lon="6.52621">
        <ele>2345</ele>
        <time>2014-02-20T08:41:54.000Z</time>
      </trkpt>
      <trkpt lat="45.92421" lon="6.52624">
        <ele>2342</ele>
        <time>2014-02-20T08:42:04.000Z</time>
      </trkpt>
      <trkpt lat="45.92422" lon="6.52633">
        <ele>2342</ele>
        <time>2014-02-20T08:42:14.000Z</time>
      </trkpt>
      <trkpt lat="45.92421" lon="6.52641">
        <ele>2343</ele>
        <time>2014-02-20T08:42:24.000Z</time>
      </trkpt>
      <trkpt lat="45.92422" lon="6.52645">
        <ele>2337</ele>
        <time>2014-02-20T08:42:34.000Z</time>
      </trkpt>
      <trkpt lat="45.92425" lon="6.52645">
        <ele>2341</ele>
        <time>2014-02-20T08:42:44.000Z</time>
      </trkpt>
      <trkpt lat="45.92426" lon="6.52651">
        <ele>2350</ele>
        <time>2014-02-20T08:43:14.000Z</time>
      </trkpt>
      <trkpt lat="45.92424" lon="6.52656">
        <ele>2350</ele>
        <time>2014-02-20T08:43:24.000Z</time>
      </trkpt>
      <trkpt lat="45.92426" lon="6.52659">
        <ele>2351</ele>
        <time>2014-02-20T08:43:34.000Z</time>
      </trkpt>
      <trkpt lat="45.92431" lon="6.52658">
        <ele>2356</ele>
        <time>2014-02-20T08:43:44.000Z</time>
      </trkpt>
      <trkpt lat="45.92433" lon="6.52662">
        <ele>2357</ele>
        <time>2014-02-20T08:44:04.000Z</time>
      </trkpt>
      <trkpt lat="45.92431" lon="6.52668">
        <ele>2358</ele>
        <time>2014-02-20T08:44:14.000Z</time>
      </trkpt>
      <trkpt lat="45.92427" lon="6.52673">
        <ele>2360</ele>
        <time>2014-02-20T08:44:24.000Z</time>
      </trkpt>
      <trkpt lat="45.92423" lon="6.52675">
        <ele>2360</ele>
        <time>2014-02-20T08:44:34.000Z</time>
      </trkpt>
      <trkpt lat="45.92425" lon="6.52681">
        <ele>2361</ele>
        <time>2014-02-20T08:44:44.000Z</time>
      </trkpt>
      <trkpt lat="45.92429" lon="6.52684">
        <ele>2358</ele>
        <time>2014-02-20T08:44:54.000Z</time>
      </trkpt>
      <trkpt lat="45.92427" lon="6.52686">
        <ele>2368</ele>
        <time>2014-02-20T08:45:24.000Z</time>
      </trkpt>
      <trkpt lat="45.92423" lon="6.5269">
        <ele>2367</ele>
        <time>2014-02-20T08:45:34.000Z</time>
      </trkpt>
      <trkpt lat="45.9242" lon="6.52694">
        <ele>2371</ele>
        <time>2014-02-20T08:45:44.000Z</time>
      </trkpt>
      <trkpt lat="45.92415" lon="6.52698">
        <ele>2371</ele>
        <time>2014-02-20T08:45:54.000Z</time>
      </trkpt>
      <trkpt lat="45.92419" lon="6.52702">
        <ele>2370</ele>
        <time>2014-02-20T08:46:04.000Z</time>
      </trkpt>
      <trkpt lat="45.92424" lon="6.52705">
        <ele>2374</ele>
        <time>2014-02-20T08:46:14.000Z</time>
      </trkpt>
      <trkpt lat="45.92429" lon="6.52708">
        <ele>2371</ele>
        <time>2014-02-20T08:46:24.000Z</time>
      </trkpt>
      <trkpt lat="45.92424" lon="6.52713">
        <ele>2380</ele>
        <time>2014-02-20T08:46:34.000Z</time>
      </trkpt>
      <trkpt lat="45.92419" lon="6.52714">
        <ele>2381</ele>
        <time>2014-02-20T08:46:44.000Z</time>
      </trkpt>
      <trkpt lat="45.92415" lon="6.52721">
        <ele>2382</ele>
        <time>2014-02-20T08:46:54.000Z</time>
      </trkpt>
      <trkpt lat="45.92415" lon="6.52718">
        <ele>2389</ele>
        <time>2014-02-20T08:47:24.000Z</time>
      </trkpt>
      <trkpt lat="45.9241" lon="6.52718">
        <ele>2387</ele>
        <time>2014-02-20T08:47:34.000Z</time>
      </trkpt>
      <trkpt lat="45.92408" lon="6.52728">
        <ele>2389</ele>
        <time>2014-02-20T08:47:44.000Z</time>
      </trkpt>
      <trkpt lat="45.92404" lon="6.52735">
        <ele>2389</ele>
        <time>2014-02-20T08:47:54.000Z</time>
      </trkpt>
      <trkpt lat="45.92409" lon="6.52746">
        <ele>2387</ele>
        <time>2014-02-20T08:48:04.000Z</time>
      </trkpt>
      <trkpt lat="45.9241" lon="6.52755">
        <ele>2390</ele>
        <time>2014-02-20T08:48:14.000Z</time>
      </trkpt>
      <trkpt lat="45.9241" lon="6.52761">
        <ele>2394</ele>
        <time>2014-02-20T08:48:24.000Z</time>
      </trkpt>
      <trkpt lat="45.92411" lon="6.52768">
        <ele>2399</ele>
        <time>2014-02-20T08:48:34.000Z</time>
      </trkpt>
      <trkpt lat="45.92414" lon="6.52778">
        <ele>2395</ele>
        <time>2014-02-20T08:48:44.000Z</time>
      </trkpt>
      <trkpt lat="45.92418" lon="6.52787">
        <ele>2398</ele>
        <time>2014-02-20T08:48:54.000Z</time>
      </trkpt>
      <trkpt lat="45.92422" lon="6.52794">
        <ele>2399</ele>
        <time>2014-02-20T08:49:04.000Z</time>
      </trkpt>
      <trkpt lat="45.92427" lon="6.52799">
        <ele>2402</ele>
        <time>2014-02-20T08:49:14.000Z</time>
      </trkpt>
      <trkpt lat="45.92433" lon="6.52804">
        <ele>2399</ele>
        <time>2014-02-20T08:49:24.000Z</time>
      </trkpt>
      <trkpt lat="45.92437" lon="6.52807">
        <ele>2401</ele>
        <time>2014-02-20T08:49:34.000Z</time>
      </trkpt>
      <trkpt lat="45.92436" lon="6.52811">
        <ele>2404</ele>
        <time>2014-02-20T08:49:44.000Z</time>
      </trkpt>
      <trkpt lat="45.92433" lon="6.52816">
        <ele>2409</ele>
        <time>2014-02-20T08:49:54.000Z</time>
      </trkpt>
      <trkpt lat="45.9243" lon="6.52824">
        <ele>2411</ele>
        <time>2014-02-20T08:50:04.000Z</time>
      </trkpt>
      <trkpt lat="45.92428" lon="6.52832">
        <ele>2411</ele>
        <time>2014-02-20T08:50:14.000Z</time>
      </trkpt>
      <trkpt lat="45.92424" lon="6.52838">
        <ele>2413</ele>
        <time>2014-02-20T08:50:24.000Z</time>
      </trkpt>
      <trkpt lat="45.92419" lon="6.52845">
        <ele>2412</ele>
        <time>2014-02-20T08:50:34.000Z</time>
      </trkpt>
      <trkpt lat="45.92415" lon="6.52849">
        <ele>2417</ele>
        <time>2014-02-20T08:50:44.000Z</time>
      </trkpt>
      <trkpt lat="45.92412" lon="6.52848">
        <ele>2420</ele>
        <time>2014-02-20T08:51:04.000Z</time>
      </trkpt>
      <trkpt lat="45.92414" lon="6.52839">
        <ele>2421</ele>
        <time>2014-02-20T08:51:14.000Z</time>
      </trkpt>
      <trkpt lat="45.92407" lon="6.52852">
        <ele>2426</ele>
        <time>2014-02-20T08:51:24.000Z</time>
      </trkpt>
      <trkpt lat="45.92407" lon="6.52859">
        <ele>2421</ele>
        <time>2014-02-20T08:51:34.000Z</time>
      </trkpt>
      <trkpt lat="45.92412" lon="6.52868">
        <ele>2420</ele>
        <time>2014-02-20T08:51:44.000Z</time>
      </trkpt>
      <trkpt lat="45.92419" lon="6.52871">
        <ele>2422</ele>
        <time>2014-02-20T08:51:54.000Z</time>
      </trkpt>
      <trkpt lat="45.92425" lon="6.52875">
        <ele>2423</ele>
        <time>2014-02-20T08:52:04.000Z</time>
      </trkpt>
      <trkpt lat="45.92431" lon="6.52878">
        <ele>2424</ele>
        <time>2014-02-20T08:52:14.000Z</time>
      </trkpt>
      <trkpt lat="45.92436" lon="6.5288">
        <ele>2427</ele>
        <time>2014-02-20T08:52:24.000Z</time>
      </trkpt>
      <trkpt lat="45.92436" lon="6.52881">
        <ele>2430</ele>
        <time>2014-02-20T08:52:34.000Z</time>
      </trkpt>
      <trkpt lat="45.9243" lon="6.52883">
        <ele>2430</ele>
        <time>2014-02-20T08:52:44.000Z</time>
      </trkpt>
      <trkpt lat="45.92425" lon="6.52889">
        <ele>2433</ele>
        <time>2014-02-20T08:52:54.000Z</time>
      </trkpt>
      <trkpt lat="45.9242" lon="6.52893">
        <ele>2437</ele>
        <time>2014-02-20T08:53:04.000Z</time>
      </trkpt>
      <trkpt lat="45.92417" lon="6.52898">
        <ele>2439</ele>
        <time>2014-02-20T08:53:14.000Z</time>
      </trkpt>
      <trkpt lat="45.92414" lon="6.52898">
        <ele>2441</ele>
        <time>2014-02-20T08:53:44.000Z</time>
      </trkpt>
      <trkpt lat="45.92417" lon="6.52906">
        <ele>2438</ele>
        <time>2014-02-20T08:53:54.000Z</time>
      </trkpt>
      <trkpt lat="45.92423" lon="6.52914">
        <ele>2439</ele>
        <time>2014-02-20T08:54:04.000Z</time>
      </trkpt>
      <trkpt lat="45.92428" lon="6.52922">
        <ele>2439</ele>
        <time>2014-02-20T08:54:14.000Z</time>
      </trkpt>
      <trkpt lat="45.92433" lon="6.52925">
        <ele>2441</ele>
        <time>2014-02-20T08:54:24.000Z</time>
      </trkpt>
      <trkpt lat="45.92439" lon="6.52928">
        <ele>2443</ele>
        <time>2014-02-20T08:54:34.000Z</time>
      </trkpt>
      <trkpt lat="45.92444" lon="6.5293">
        <ele>2443</ele>
        <time>2014-02-20T08:54:44.000Z</time>
      </trkpt>
      <trkpt lat="45.92445" lon="6.52931">
        <ele>2442</ele>
        <time>2014-02-20T08:54:54.000Z</time>
      </trkpt>
      <trkpt lat="45.92442" lon="6.52936">
        <ele>2448</ele>
        <time>2014-02-20T08:55:04.000Z</time>
      </trkpt>
      <trkpt lat="45.9244" lon="6.52942">
        <ele>2450</ele>
        <time>2014-02-20T08:55:14.000Z</time>
      </trkpt>
      <trkpt lat="45.92438" lon="6.52949">
        <ele>2454</ele>
        <time>2014-02-20T08:55:24.000Z</time>
      </trkpt>
      <trkpt lat="45.92434" lon="6.52956">
        <ele>2455</ele>
        <time>2014-02-20T08:55:34.000Z</time>
      </trkpt>
      <trkpt lat="45.92433" lon="6.52962">
        <ele>2457</ele>
        <time>2014-02-20T08:55:44.000Z</time>
      </trkpt>
      <trkpt lat="45.92437" lon="6.52968">
        <ele>2456</ele>
        <time>2014-02-20T08:55:54.000Z</time>
      </trkpt>
      <trkpt lat="45.92443" lon="6.52973">
        <ele>2461</ele>
        <time>2014-02-20T08:56:04.000Z</time>
      </trkpt>
      <trkpt lat="45.92449" lon="6.52979">
        <ele>2459</ele>
        <time>2014-02-20T08:56:14.000Z</time>
      </trkpt>
      <trkpt lat="45.92453" lon="6.52981">
        <ele>2460</ele>
        <time>2014-02-20T08:56:24.000Z</time>
      </trkpt>
      <trkpt lat="45.92455" lon="6.52985">
        <ele>2464</ele>
        <time>2014-02-20T08:57:04.000Z</time>
      </trkpt>
      <trkpt lat="45.92451" lon="6.52991">
        <ele>2466</ele>
        <time>2014-02-20T08:57:14.000Z</time>
      </trkpt>
      <trkpt lat="45.92445" lon="6.52995">
        <ele>2468</ele>
        <time>2014-02-20T08:57:24.000Z</time>
      </trkpt>
      <trkpt lat="45.92439" lon="6.53">
        <ele>2468</ele>
        <time>2014-02-20T08:57:34.000Z</time>
      </trkpt>
      <trkpt lat="45.92433" lon="6.53003">
        <ele>2474</ele>
        <time>2014-02-20T08:57:44.000Z</time>
      </trkpt>
      <trkpt lat="45.92437" lon="6.53007">
        <ele>2476</ele>
        <time>2014-02-20T08:57:54.000Z</time>
      </trkpt>
      <trkpt lat="45.92443" lon="6.53013">
        <ele>2471</ele>
        <time>2014-02-20T08:58:04.000Z</time>
      </trkpt>
      <trkpt lat="45.92443" lon="6.53013">
        <ele>2471</ele>
        <time>2014-02-20T08:58:05.000Z</time>
      </trkpt>
      <trkpt lat="45.9245" lon="6.53018">
        <ele>2475</ele>
        <time>2014-02-20T08:58:15.000Z</time>
      </trkpt>
      <trkpt lat="45.92455" lon="6.53023">
        <ele>2476</ele>
        <time>2014-02-20T08:58:25.000Z</time>
      </trkpt>
      <trkpt lat="45.92459" lon="6.53026">
        <ele>2481</ele>
        <time>2014-02-20T08:58:35.000Z</time>
      </trkpt>
      <trkpt lat="45.92463" lon="6.53025">
        <ele>2482</ele>
        <time>2014-02-20T08:58:55.000Z</time>
      </trkpt>
      <trkpt lat="45.92468" lon="6.53027">
        <ele>2482</ele>
        <time>2014-02-20T08:59:05.000Z</time>
      </trkpt>
      <trkpt lat="45.92473" lon="6.53028">
        <ele>2483</ele>
        <time>2014-02-20T08:59:15.000Z</time>
      </trkpt>
      <trkpt lat="45.9248" lon="6.53027">
        <ele>2482</ele>
        <time>2014-02-20T08:59:25.000Z</time>
      </trkpt>
      <trkpt lat="45.92476" lon="6.53031">
        <ele>2488</ele>
        <time>2014-02-20T08:59:45.000Z</time>
      </trkpt>
      <trkpt lat="45.92475" lon="6.53039">
        <ele>2490</ele>
        <time>2014-02-20T08:59:55.000Z</time>
      </trkpt>
      <trkpt lat="45.92474" lon="6.53047">
        <ele>2495</ele>
        <time>2014-02-20T09:00:05.000Z</time>
      </trkpt>
      <trkpt lat="45.92475" lon="6.53049">
        <ele>2501</ele>
        <time>2014-02-20T09:00:25.000Z</time>
      </trkpt>
      <trkpt lat="45.92473" lon="6.53054">
        <ele>2501</ele>
        <time>2014-02-20T09:00:35.000Z</time>
      </trkpt>
      <trkpt lat="45.92471" lon="6.53059">
        <ele>2496</ele>
        <time>2014-02-20T09:00:45.000Z</time>
      </trkpt>
      <trkpt lat="45.92477" lon="6.5306">
        <ele>2494</ele>
        <time>2014-02-20T09:00:55.000Z</time>
      </trkpt>
      <trkpt lat="45.92475" lon="6.5306">
        <ele>2497</ele>
        <time>2014-02-20T09:01:15.000Z</time>
      </trkpt>
      <trkpt lat="45.92482" lon="6.53055">
        <ele>2501</ele>
        <time>2014-02-20T09:01:25.000Z</time>
      </trkpt>
      <trkpt lat="45.92488" lon="6.53052">
        <ele>2499</ele>
        <time>2014-02-20T09:01:35.000Z</time>
      </trkpt>
      <trkpt lat="45.92495" lon="6.53051">
        <ele>2501</ele>
        <time>2014-02-20T09:01:45.000Z</time>
      </trkpt>
      <trkpt lat="45.925" lon="6.53047">
        <ele>2505</ele>
        <time>2014-02-20T09:01:55.000Z</time>
      </trkpt>
      <trkpt lat="45.92499" lon="6.53042">
        <ele>2512</ele>
        <time>2014-02-20T09:02:55.000Z</time>
      </trkpt>
      <trkpt lat="45.925" lon="6.53038">
        <ele>2516</ele>
        <time>2014-02-20T09:03:05.000Z</time>
      </trkpt>
      <trkpt lat="45.925" lon="6.5304">
        <ele>2503</ele>
        <time>2014-02-20T09:03:15.000Z</time>
      </trkpt>
      <trkpt lat="45.925" lon="6.53047">
        <ele>2500</ele>
        <time>2014-02-20T09:03:25.000Z</time>
      </trkpt>
      <trkpt lat="45.92497" lon="6.53042">
        <ele>2508</ele>
        <time>2014-02-20T09:03:35.000Z</time>
      </trkpt>
      <trkpt lat="45.925" lon="6.53041">
        <ele>2506</ele>
        <time>2014-02-20T09:04:15.000Z</time>
      </trkpt>
      <trkpt lat="45.92501" lon="6.53044">
        <ele>2514</ele>
        <time>2014-02-20T09:04:25.000Z</time>
      </trkpt>
      <trkpt lat="45.92503" lon="6.53047">
        <ele>2514</ele>
        <time>2014-02-20T09:04:35.000Z</time>
      </trkpt>
      <trkpt lat="45.92503" lon="6.53052">
        <ele>2525</ele>
        <time>2014-02-20T09:04:45.000Z</time>
      </trkpt>
      <trkpt lat="45.92503" lon="6.5305">
        <ele>2522</ele>
        <time>2014-02-20T09:04:55.000Z</time>
      </trkpt>
      <trkpt lat="45.92501" lon="6.53045">
        <ele>2504</ele>
        <time>2014-02-20T09:05:05.000Z</time>
      </trkpt>
      <trkpt lat="45.92499" lon="6.53044">
        <ele>2507</ele>
        <time>2014-02-20T09:05:35.000Z</time>
      </trkpt>
      <trkpt lat="45.92497" lon="6.53042">
        <ele>2502</ele>
        <time>2014-02-20T09:05:45.000Z</time>
      </trkpt>
      <trkpt lat="45.92493" lon="6.53038">
        <ele>2512</ele>
        <time>2014-02-20T09:05:55.000Z</time>
      </trkpt>
      <trkpt lat="45.92492" lon="6.53034">
        <ele>2506</ele>
        <time>2014-02-20T09:06:05.000Z</time>
      </trkpt>
      <trkpt lat="45.92498" lon="6.5304">
        <ele>2515</ele>
        <time>2014-02-20T09:06:15.000Z</time>
      </trkpt>
      <trkpt lat="45.92502" lon="6.53039">
        <ele>2500</ele>
        <time>2014-02-20T09:06:35.000Z</time>
      </trkpt>
      <trkpt lat="45.92503" lon="6.53042">
        <ele>2506</ele>
        <time>2014-02-20T09:06:45.000Z</time>
      </trkpt>
      <trkpt lat="45.92501" lon="6.53042">
        <ele>2521</ele>
        <time>2014-02-20T09:08:05.000Z</time>
      </trkpt>
      <trkpt lat="45.92499" lon="6.53043">
        <ele>2507</ele>
        <time>2014-02-20T09:08:15.000Z</time>
      </trkpt>
      <trkpt lat="45.92502" lon="6.5304">
        <ele>2504</ele>
        <time>2014-02-20T09:14:45.000Z</time>
      </trkpt>
      <trkpt lat="45.92505" lon="6.53043">
        <ele>2505</ele>
        <time>2014-02-20T09:14:55.000Z</time>
      </trkpt>
      <trkpt lat="45.92501" lon="6.53042">
        <ele>2502</ele>
        <time>2014-02-20T09:15:35.000Z</time>
      </trkpt>
      <trkpt lat="45.92501" lon="6.53041">
        <ele>2504</ele>
        <time>2014-02-20T09:15:45.000Z</time>
      </trkpt>
      <trkpt lat="45.92497" lon="6.53043">
        <ele>2504</ele>
        <time>2014-02-20T09:17:36.000Z</time>
      </trkpt>
      <trkpt lat="45.92496" lon="6.53033">
        <ele>2503</ele>
        <time>2014-02-20T09:17:46.000Z</time>
      </trkpt>
      <trkpt lat="45.92484" lon="6.53044">
        <ele>2495</ele>
        <time>2014-02-20T09:17:56.000Z</time>
      </trkpt>
      <trkpt lat="45.92451" lon="6.53055">
        <ele>2494</ele>
        <time>2014-02-20T09:18:06.000Z</time>
      </trkpt>
      <trkpt lat="45.92423" lon="6.53032">
        <ele>2483</ele>
        <time>2014-02-20T09:18:16.000Z</time>
      </trkpt>
      <trkpt lat="45.92428" lon="6.53004">
        <ele>2475</ele>
        <time>2014-02-20T09:18:26.000Z</time>
      </trkpt>
      <trkpt lat="45.9241" lon="6.52975">
        <ele>2471</ele>
        <time>2014-02-20T09:18:36.000Z</time>
      </trkpt>
      <trkpt lat="45.92404" lon="6.52963">
        <ele>2469</ele>
        <time>2014-02-20T09:18:46.000Z</time>
      </trkpt>
      <trkpt lat="45.92381" lon="6.52941">
        <ele>2466</ele>
        <time>2014-02-20T09:18:56.000Z</time>
      </trkpt>
      <trkpt lat="45.92382" lon="6.52939">
        <ele>2474</ele>
        <time>2014-02-20T09:19:06.000Z</time>
      </trkpt>
      <trkpt lat="45.92373" lon="6.5293">
        <ele>2466</ele>
        <time>2014-02-20T09:19:16.000Z</time>
      </trkpt>
      <trkpt lat="45.92356" lon="6.52889">
        <ele>2448</ele>
        <time>2014-02-20T09:19:26.000Z</time>
      </trkpt>
      <trkpt lat="45.92357" lon="6.52867">
        <ele>2443</ele>
        <time>2014-02-20T09:19:36.000Z</time>
      </trkpt>
      <trkpt lat="45.92335" lon="6.52818">
        <ele>2430</ele>
        <time>2014-02-20T09:19:46.000Z</time>
      </trkpt>
      <trkpt lat="45.92292" lon="6.52757">
        <ele>2417</ele>
        <time>2014-02-20T09:19:56.000Z</time>
      </trkpt>
      <trkpt lat="45.92271" lon="6.52703">
        <ele>2408</ele>
        <time>2014-02-20T09:20:06.000Z</time>
      </trkpt>
      <trkpt lat="45.92274" lon="6.52632">
        <ele>2385</ele>
        <time>2014-02-20T09:20:16.000Z</time>
      </trkpt>
      <trkpt lat="45.92306" lon="6.52541">
        <ele>2355</ele>
        <time>2014-02-20T09:20:26.000Z</time>
      </trkpt>
      <trkpt lat="45.92313" lon="6.52501">
        <ele>2353</ele>
        <time>2014-02-20T09:20:36.000Z</time>
      </trkpt>
      <trkpt lat="45.92312" lon="6.52478">
        <ele>2352</ele>
        <time>2014-02-20T09:20:46.000Z</time>
      </trkpt>
      <trkpt lat="45.92308" lon="6.52472">
        <ele>2349</ele>
        <time>2014-02-20T09:20:56.000Z</time>
      </trkpt>
      <trkpt lat="45.92308" lon="6.52463">
        <ele>2347</ele>
        <time>2014-02-20T09:21:06.000Z</time>
      </trkpt>
      <trkpt lat="45.92312" lon="6.52453">
        <ele>2356</ele>
        <time>2014-02-20T09:21:16.000Z</time>
      </trkpt>
      <trkpt lat="45.92316" lon="6.52399">
        <ele>2347</ele>
        <time>2014-02-20T09:21:26.000Z</time>
      </trkpt>
      <trkpt lat="45.92313" lon="6.52399">
        <ele>2349</ele>
        <time>2014-02-20T09:22:06.000Z</time>
      </trkpt>
      <trkpt lat="45.92309" lon="6.52367">
        <ele>2341</ele>
        <time>2014-02-20T09:22:16.000Z</time>
      </trkpt>
      <trkpt lat="45.9231" lon="6.52356">
        <ele>2335</ele>
        <time>2014-02-20T09:22:26.000Z</time>
      </trkpt>
      <trkpt lat="45.92336" lon="6.52329">
        <ele>2314</ele>
        <time>2014-02-20T09:22:36.000Z</time>
      </trkpt>
      <trkpt lat="45.92346" lon="6.52312">
        <ele>2297</ele>
        <time>2014-02-20T09:22:46.000Z</time>
      </trkpt>
      <trkpt lat="45.92346" lon="6.52312">
        <ele>2297</ele>
        <time>2014-02-20T09:22:56.000Z</time>
      </trkpt>
      <trkpt lat="45.92352" lon="6.52307">
        <ele>2311</ele>
        <time>2014-02-20T09:23:06.000Z</time>
      </trkpt>
      <trkpt lat="45.9239" lon="6.52344">
        <ele>2288</ele>
        <time>2014-02-20T09:23:16.000Z</time>
      </trkpt>
      <trkpt lat="45.92425" lon="6.52261">
        <ele>2277</ele>
        <time>2014-02-20T09:23:26.000Z</time>
      </trkpt>
      <trkpt lat="45.92431" lon="6.52153">
        <ele>2260</ele>
        <time>2014-02-20T09:23:36.000Z</time>
      </trkpt>
      <trkpt lat="45.92448" lon="6.52064">
        <ele>2251</ele>
        <time>2014-02-20T09:23:46.000Z</time>
      </trkpt>
      <trkpt lat="45.92441" lon="6.51993">
        <ele>2246</ele>
        <time>2014-02-20T09:23:56.000Z</time>
      </trkpt>
      <trkpt lat="45.92441" lon="6.51993">
        <ele>2246</ele>
        <time>2014-02-20T09:24:06.000Z</time>
      </trkpt>
      <trkpt lat="45.92431" lon="6.51955">
        <ele>2235</ele>
        <time>2014-02-20T09:24:16.000Z</time>
      </trkpt>
      <trkpt lat="45.92431" lon="6.51955">
        <ele>2235</ele>
        <time>2014-02-20T09:24:26.000Z</time>
      </trkpt>
      <trkpt lat="45.92445" lon="6.51952">
        <ele>2229</ele>
        <time>2014-02-20T09:24:36.000Z</time>
      </trkpt>
      <trkpt lat="45.92472" lon="6.51947">
        <ele>2220</ele>
        <time>2014-02-20T09:24:46.000Z</time>
      </trkpt>
      <trkpt lat="45.92477" lon="6.51936">
        <ele>2214</ele>
        <time>2014-02-20T09:24:56.000Z</time>
      </trkpt>
      <trkpt lat="45.92475" lon="6.51934">
        <ele>2208</ele>
        <time>2014-02-20T09:25:36.000Z</time>
      </trkpt>
      <trkpt lat="45.92481" lon="6.51913">
        <ele>2206</ele>
        <time>2014-02-20T09:25:46.000Z</time>
      </trkpt>
      <trkpt lat="45.92495" lon="6.5183">
        <ele>2183</ele>
        <time>2014-02-20T09:25:56.000Z</time>
      </trkpt>
      <trkpt lat="45.9251" lon="6.51761">
        <ele>2174</ele>
        <time>2014-02-20T09:26:06.000Z</time>
      </trkpt>
      <trkpt lat="45.92534" lon="6.51749">
        <ele>2169</ele>
        <time>2014-02-20T09:26:16.000Z</time>
      </trkpt>
      <trkpt lat="45.9253" lon="6.51742">
        <ele>2162</ele>
        <time>2014-02-20T09:26:26.000Z</time>
      </trkpt>
      <trkpt lat="45.92526" lon="6.5173">
        <ele>2159</ele>
        <time>2014-02-20T09:26:36.000Z</time>
      </trkpt>
      <trkpt lat="45.92525" lon="6.51722">
        <ele>2159</ele>
        <time>2014-02-20T09:26:46.000Z</time>
      </trkpt>
      <trkpt lat="45.92526" lon="6.51714">
        <ele>2159</ele>
        <time>2014-02-20T09:26:56.000Z</time>
      </trkpt>
      <trkpt lat="45.92527" lon="6.51705">
        <ele>2157</ele>
        <time>2014-02-20T09:27:06.000Z</time>
      </trkpt>
      <trkpt lat="45.92525" lon="6.51702">
        <ele>2161</ele>
        <time>2014-02-20T09:32:26.000Z</time>
      </trkpt>
      <trkpt lat="45.92521" lon="6.51692">
        <ele>2160</ele>
        <time>2014-02-20T09:32:36.000Z</time>
      </trkpt>
      <trkpt lat="45.92511" lon="6.51676">
        <ele>2166</ele>
        <time>2014-02-20T09:32:46.000Z</time>
      </trkpt>
      <trkpt lat="45.92499" lon="6.51659">
        <ele>2165</ele>
        <time>2014-02-20T09:32:56.000Z</time>
      </trkpt>
      <trkpt lat="45.92492" lon="6.51654">
        <ele>2166</ele>
        <time>2014-02-20T09:33:06.000Z</time>
      </trkpt>
      <trkpt lat="45.92493" lon="6.51652">
        <ele>2160</ele>
        <time>2014-02-20T09:33:26.000Z</time>
      </trkpt>
      <trkpt lat="45.92485" lon="6.51633">
        <ele>2163</ele>
        <time>2014-02-20T09:33:36.000Z</time>
      </trkpt>
      <trkpt lat="45.92484" lon="6.51595">
        <ele>2161</ele>
        <time>2014-02-20T09:33:46.000Z</time>
      </trkpt>
      <trkpt lat="45.92483" lon="6.51584">
        <ele>2154</ele>
        <time>2014-02-20T09:33:56.000Z</time>
      </trkpt>
      <trkpt lat="45.92482" lon="6.51579">
        <ele>2143</ele>
        <time>2014-02-20T09:34:06.000Z</time>
      </trkpt>
      <trkpt lat="45.92481" lon="6.51578">
        <ele>2146</ele>
        <time>2014-02-20T09:34:16.000Z</time>
      </trkpt>
      <trkpt lat="45.92481" lon="6.51583">
        <ele>2150</ele>
        <time>2014-02-20T09:34:36.000Z</time>
      </trkpt>
      <trkpt lat="45.92487" lon="6.51587">
        <ele>2148</ele>
        <time>2014-02-20T09:34:46.000Z</time>
      </trkpt>
      <trkpt lat="45.92494" lon="6.51595">
        <ele>2146</ele>
        <time>2014-02-20T09:34:56.000Z</time>
      </trkpt>
      <trkpt lat="45.92514" lon="6.51615">
        <ele>2145</ele>
        <time>2014-02-20T09:35:06.000Z</time>
      </trkpt>
      <trkpt lat="45.92539" lon="6.51611">
        <ele>2126</ele>
        <time>2014-02-20T09:35:16.000Z</time>
      </trkpt>
      <trkpt lat="45.92533" lon="6.51592">
        <ele>2124</ele>
        <time>2014-02-20T09:35:26.000Z</time>
      </trkpt>
      <trkpt lat="45.9254" lon="6.51576">
        <ele>2128</ele>
        <time>2014-02-20T09:35:36.000Z</time>
      </trkpt>
      <trkpt lat="45.92544" lon="6.51579">
        <ele>2135</ele>
        <time>2014-02-20T09:35:46.000Z</time>
      </trkpt>
      <trkpt lat="45.92555" lon="6.51565">
        <ele>2117</ele>
        <time>2014-02-20T09:35:56.000Z</time>
      </trkpt>
      <trkpt lat="45.92563" lon="6.51547">
        <ele>2104</ele>
        <time>2014-02-20T09:36:06.000Z</time>
      </trkpt>
      <trkpt lat="45.92571" lon="6.51542">
        <ele>2080</ele>
        <time>2014-02-20T09:36:16.000Z</time>
      </trkpt>
      <trkpt lat="45.92574" lon="6.51542">
        <ele>2084</ele>
        <time>2014-02-20T09:36:26.000Z</time>
      </trkpt>
      <trkpt lat="45.92575" lon="6.51537">
        <ele>2084</ele>
        <time>2014-02-20T09:36:36.000Z</time>
      </trkpt>
      <trkpt lat="45.92572" lon="6.51537">
        <ele>2080</ele>
        <time>2014-02-20T09:36:56.000Z</time>
      </trkpt>
      <trkpt lat="45.9258" lon="6.5153">
        <ele>2080</ele>
        <time>2014-02-20T09:37:06.000Z</time>
      </trkpt>
      <trkpt lat="45.92588" lon="6.51531">
        <ele>2078</ele>
        <time>2014-02-20T09:37:16.000Z</time>
      </trkpt>
      <trkpt lat="45.92612" lon="6.51533">
        <ele>2067</ele>
        <time>2014-02-20T09:37:26.000Z</time>
      </trkpt>
      <trkpt lat="45.92611" lon="6.51519">
        <ele>2065</ele>
        <time>2014-02-20T09:37:36.000Z</time>
      </trkpt>
      <trkpt lat="45.92613" lon="6.51519">
        <ele>2068</ele>
        <time>2014-02-20T09:37:46.000Z</time>
      </trkpt>
      <trkpt lat="45.92616" lon="6.51518">
        <ele>2061</ele>
        <time>2014-02-20T09:37:56.000Z</time>
      </trkpt>
      <trkpt lat="45.92619" lon="6.51496">
        <ele>2042</ele>
        <time>2014-02-20T09:38:06.000Z</time>
      </trkpt>
      <trkpt lat="45.92626" lon="6.51488">
        <ele>2048</ele>
        <time>2014-02-20T09:38:16.000Z</time>
      </trkpt>
      <trkpt lat="45.92657" lon="6.51473">
        <ele>2030</ele>
        <time>2014-02-20T09:38:26.000Z</time>
      </trkpt>
      <trkpt lat="45.92667" lon="6.51445">
        <ele>2013</ele>
        <time>2014-02-20T09:38:36.000Z</time>
      </trkpt>
      <trkpt lat="45.92667" lon="6.51444">
        <ele>2023</ele>
        <time>2014-02-20T09:38:46.000Z</time>
      </trkpt>
      <trkpt lat="45.9267" lon="6.51433">
        <ele>2010</ele>
        <time>2014-02-20T09:38:56.000Z</time>
      </trkpt>
      <trkpt lat="45.92698" lon="6.5139">
        <ele>1999</ele>
        <time>2014-02-20T09:39:06.000Z</time>
      </trkpt>
      <trkpt lat="45.92711" lon="6.51378">
        <ele>1984</ele>
        <time>2014-02-20T09:39:16.000Z</time>
      </trkpt>
      <trkpt lat="45.92709" lon="6.51382">
        <ele>1988</ele>
        <time>2014-02-20T09:39:36.000Z</time>
      </trkpt>
      <trkpt lat="45.92736" lon="6.51366">
        <ele>1973</ele>
        <time>2014-02-20T09:39:46.000Z</time>
      </trkpt>
      <trkpt lat="45.92757" lon="6.51344">
        <ele>1954</ele>
        <time>2014-02-20T09:39:56.000Z</time>
      </trkpt>
      <trkpt lat="45.92797" lon="6.51335">
        <ele>1941</ele>
        <time>2014-02-20T09:40:06.000Z</time>
      </trkpt>
      <trkpt lat="45.92797" lon="6.51338">
        <ele>1940</ele>
        <time>2014-02-20T09:40:26.000Z</time>
      </trkpt>
      <trkpt lat="45.92803" lon="6.51305">
        <ele>1926</ele>
        <time>2014-02-20T09:40:36.000Z</time>
      </trkpt>
      <trkpt lat="45.92808" lon="6.51245">
        <ele>1909</ele>
        <time>2014-02-20T09:40:46.000Z</time>
      </trkpt>
      <trkpt lat="45.92805" lon="6.51158">
        <ele>1902</ele>
        <time>2014-02-20T09:40:56.000Z</time>
      </trkpt>
      <trkpt lat="45.92867" lon="6.5103">
        <ele>1917</ele>
        <time>2014-02-20T09:41:06.000Z</time>
      </trkpt>
      <trkpt lat="45.92889" lon="6.50972">
        <ele>1898</ele>
        <time>2014-02-20T09:41:16.000Z</time>
      </trkpt>
      <trkpt lat="45.92889" lon="6.50972">
        <ele>1898</ele>
        <time>2014-02-20T09:41:26.000Z</time>
      </trkpt>
      <trkpt lat="45.92869" lon="6.50948">
        <ele>1857</ele>
        <time>2014-02-20T09:41:36.000Z</time>
      </trkpt>
      <trkpt lat="45.92884" lon="6.5087">
        <ele>1848</ele>
        <time>2014-02-20T09:41:46.000Z</time>
      </trkpt>
      <trkpt lat="45.92884" lon="6.50868">
        <ele>1847</ele>
        <time>2014-02-20T09:42:16.000Z</time>
      </trkpt>
      <trkpt lat="45.92882" lon="6.50864">
        <ele>1847</ele>
        <time>2014-02-20T09:42:26.000Z</time>
      </trkpt>
      <trkpt lat="45.92869" lon="6.50814">
        <ele>1840</ele>
        <time>2014-02-20T09:42:36.000Z</time>
      </trkpt>
      <trkpt lat="45.92893" lon="6.50788">
        <ele>1826</ele>
        <time>2014-02-20T09:42:46.000Z</time>
      </trkpt>
      <trkpt lat="45.929" lon="6.50775">
        <ele>1819</ele>
        <time>2014-02-20T09:42:56.000Z</time>
      </trkpt>
      <trkpt lat="45.929" lon="6.50775">
        <ele>1819</ele>
        <time>2014-02-20T09:43:36.000Z</time>
      </trkpt>
      <trkpt lat="45.92906" lon="6.50752">
        <ele>1808</ele>
        <time>2014-02-20T09:43:46.000Z</time>
      </trkpt>
      <trkpt lat="45.92908" lon="6.50744">
        <ele>1807</ele>
        <time>2014-02-20T09:43:56.000Z</time>
      </trkpt>
      <trkpt lat="45.92908" lon="6.50744">
        <ele>1807</ele>
        <time>2014-02-20T09:44:06.000Z</time>
      </trkpt>
      <trkpt lat="45.92914" lon="6.50748">
        <ele>1803</ele>
        <time>2014-02-20T09:44:16.000Z</time>
      </trkpt>
      <trkpt lat="45.92927" lon="6.50753">
        <ele>1798</ele>
        <time>2014-02-20T09:44:26.000Z</time>
      </trkpt>
      <trkpt lat="45.92926" lon="6.50753">
        <ele>1788</ele>
        <time>2014-02-20T09:44:36.000Z</time>
      </trkpt>
      <trkpt lat="45.92949" lon="6.50732">
        <ele>1780</ele>
        <time>2014-02-20T09:44:46.000Z</time>
      </trkpt>
      <trkpt lat="45.92949" lon="6.50732">
        <ele>1780</ele>
        <time>2014-02-20T09:44:56.000Z</time>
      </trkpt>
      <trkpt lat="45.92937" lon="6.50709">
        <ele>1777</ele>
        <time>2014-02-20T09:45:06.000Z</time>
      </trkpt>
      <trkpt lat="45.92925" lon="6.50675">
        <ele>1768</ele>
        <time>2014-02-20T09:45:16.000Z</time>
      </trkpt>
      <trkpt lat="45.92921" lon="6.5067">
        <ele>1767</ele>
        <time>2014-02-20T09:45:26.000Z</time>
      </trkpt>
      <trkpt lat="45.92918" lon="6.50662">
        <ele>1757</ele>
        <time>2014-02-20T09:45:36.000Z</time>
      </trkpt>
      <trkpt lat="45.92918" lon="6.5061">
        <ele>1749</ele>
        <time>2014-02-20T09:45:46.000Z</time>
      </trkpt>
      <trkpt lat="45.92915" lon="6.50564">
        <ele>1743</ele>
        <time>2014-02-20T09:45:56.000Z</time>
      </trkpt>
      <trkpt lat="45.92913" lon="6.50558">
        <ele>1742</ele>
        <time>2014-02-20T09:46:06.000Z</time>
      </trkpt>
      <trkpt lat="45.9291" lon="6.5054">
        <ele>1737</ele>
        <time>2014-02-20T09:46:16.000Z</time>
      </trkpt>
      <trkpt lat="45.92905" lon="6.50533">
        <ele>1739</ele>
        <time>2014-02-20T09:46:26.000Z</time>
      </trkpt>
      <trkpt lat="45.92891" lon="6.50508">
        <ele>1732</ele>
        <time>2014-02-20T09:46:36.000Z</time>
      </trkpt>
      <trkpt lat="45.92891" lon="6.50508">
        <ele>1732</ele>
        <time>2014-02-20T09:46:46.000Z</time>
      </trkpt>
      <trkpt lat="45.9286" lon="6.50505">
        <ele>1727</ele>
        <time>2014-02-20T09:46:56.000Z</time>
      </trkpt>
      <trkpt lat="45.92856" lon="6.50506">
        <ele>1729</ele>
        <time>2014-02-20T09:48:16.000Z</time>
      </trkpt>
      <trkpt lat="45.92851" lon="6.50507">
        <ele>1708</ele>
        <time>2014-02-20T09:48:26.000Z</time>
      </trkpt>
      <trkpt lat="45.92851" lon="6.50513">
        <ele>1724</ele>
        <time>2014-02-20T09:52:16.000Z</time>
      </trkpt>
      <trkpt lat="45.9285" lon="6.50514">
        <ele>1727</ele>
        <time>2014-02-20T09:52:26.000Z</time>
      </trkpt>
      <trkpt lat="45.92846" lon="6.50508">
        <ele>1724</ele>
        <time>2014-02-20T09:52:36.000Z</time>
      </trkpt>
      <trkpt lat="45.92844" lon="6.50502">
        <ele>1742</ele>
        <time>2014-02-20T09:52:46.000Z</time>
      </trkpt>
      <trkpt lat="45.92844" lon="6.50503">
        <ele>1723</ele>
        <time>2014-02-20T09:52:56.000Z</time>
      </trkpt>
      <trkpt lat="45.92848" lon="6.50506">
        <ele>1720</ele>
        <time>2014-02-20T09:53:06.000Z</time>
      </trkpt>
      <trkpt lat="45.9285" lon="6.50508">
        <ele>1717</ele>
        <time>2014-02-20T09:53:56.000Z</time>
      </trkpt>
      <trkpt lat="45.92852" lon="6.5051">
        <ele>1717</ele>
        <time>2014-02-20T09:54:07.000Z</time>
      </trkpt>
      <trkpt lat="45.92858" lon="6.5051">
        <ele>1729</ele>
        <time>2014-02-20T09:54:17.000Z</time>
      </trkpt>
      <trkpt lat="45.92858" lon="6.50513">
        <ele>1719</ele>
        <time>2014-02-20T09:55:07.000Z</time>
      </trkpt>
      <trkpt lat="45.92853" lon="6.50513">
        <ele>1720</ele>
        <time>2014-02-20T09:55:17.000Z</time>
      </trkpt>
      <trkpt lat="45.92845" lon="6.50516">
        <ele>1720</ele>
        <time>2014-02-20T09:55:27.000Z</time>
      </trkpt>
      <trkpt lat="45.92831" lon="6.50517">
        <ele>1726</ele>
        <time>2014-02-20T09:55:37.000Z</time>
      </trkpt>
      <trkpt lat="45.92823" lon="6.50516">
        <ele>1727</ele>
        <time>2014-02-20T09:55:47.000Z</time>
      </trkpt>
      <trkpt lat="45.92818" lon="6.50515">
        <ele>1730</ele>
        <time>2014-02-20T09:55:57.000Z</time>
      </trkpt>
      <trkpt lat="45.92812" lon="6.50512">
        <ele>1729</ele>
        <time>2014-02-20T09:56:07.000Z</time>
      </trkpt>
      <trkpt lat="45.92805" lon="6.50512">
        <ele>1727</ele>
        <time>2014-02-20T09:56:17.000Z</time>
      </trkpt>
      <trkpt lat="45.92791" lon="6.50512">
        <ele>1735</ele>
        <time>2014-02-20T09:56:27.000Z</time>
      </trkpt>
      <trkpt lat="45.92787" lon="6.50513">
        <ele>1734</ele>
        <time>2014-02-20T09:56:37.000Z</time>
      </trkpt>
      <trkpt lat="45.9278" lon="6.50514">
        <ele>1736</ele>
        <time>2014-02-20T09:56:47.000Z</time>
      </trkpt>
      <trkpt lat="45.92777" lon="6.50514">
        <ele>1740</ele>
        <time>2014-02-20T09:56:57.000Z</time>
      </trkpt>
      <trkpt lat="45.92775" lon="6.50514">
        <ele>1747</ele>
        <time>2014-02-20T09:57:07.000Z</time>
      </trkpt>
      <trkpt lat="45.92771" lon="6.50513">
        <ele>1744</ele>
        <time>2014-02-20T09:57:17.000Z</time>
      </trkpt>
      <trkpt lat="45.92767" lon="6.50514">
        <ele>1746</ele>
        <time>2014-02-20T09:57:27.000Z</time>
      </trkpt>
      <trkpt lat="45.9276" lon="6.50516">
        <ele>1748</ele>
        <time>2014-02-20T09:57:37.000Z</time>
      </trkpt>
      <trkpt lat="45.92752" lon="6.50523">
        <ele>1746</ele>
        <time>2014-02-20T09:57:47.000Z</time>
      </trkpt>
      <trkpt lat="45.92744" lon="6.50526">
        <ele>1744</ele>
        <time>2014-02-20T09:57:57.000Z</time>
      </trkpt>
      <trkpt lat="45.92739" lon="6.50525">
        <ele>1747</ele>
        <time>2014-02-20T09:58:06.000Z</time>
      </trkpt>
      <trkpt lat="45.92732" lon="6.50519">
        <ele>1744</ele>
        <time>2014-02-20T09:58:16.000Z</time>
      </trkpt>
      <trkpt lat="45.92727" lon="6.50511">
        <ele>1745</ele>
        <time>2014-02-20T09:58:26.000Z</time>
      </trkpt>
      <trkpt lat="45.9272" lon="6.50504">
        <ele>1746</ele>
        <time>2014-02-20T09:58:36.000Z</time>
      </trkpt>
      <trkpt lat="45.92713" lon="6.50498">
        <ele>1749</ele>
        <time>2014-02-20T09:58:46.000Z</time>
      </trkpt>
      <trkpt lat="45.92706" lon="6.50488">
        <ele>1751</ele>
        <time>2014-02-20T09:58:56.000Z</time>
      </trkpt>
      <trkpt lat="45.92697" lon="6.50481">
        <ele>1753</ele>
        <time>2014-02-20T09:59:06.000Z</time>
      </trkpt>
      <trkpt lat="45.92688" lon="6.50477">
        <ele>1752</ele>
        <time>2014-02-20T09:59:16.000Z</time>
      </trkpt>
      <trkpt lat="45.92678" lon="6.50477">
        <ele>1751</ele>
        <time>2014-02-20T09:59:26.000Z</time>
      </trkpt>
      <trkpt lat="45.9267" lon="6.50475">
        <ele>1756</ele>
        <time>2014-02-20T09:59:36.000Z</time>
      </trkpt>
      <trkpt lat="45.92664" lon="6.50473">
        <ele>1756</ele>
        <time>2014-02-20T09:59:46.000Z</time>
      </trkpt>
      <trkpt lat="45.92659" lon="6.50463">
        <ele>1760</ele>
        <time>2014-02-20T09:59:56.000Z</time>
      </trkpt>
      <trkpt lat="45.92653" lon="6.50453">
        <ele>1759</ele>
        <time>2014-02-20T10:00:06.000Z</time>
      </trkpt>
      <trkpt lat="45.92647" lon="6.50446">
        <ele>1759</ele>
        <time>2014-02-20T10:00:16.000Z</time>
      </trkpt>
      <trkpt lat="45.92641" lon="6.50443">
        <ele>1761</ele>
        <time>2014-02-20T10:00:26.000Z</time>
      </trkpt>
      <trkpt lat="45.92641" lon="6.50451">
        <ele>1767</ele>
        <time>2014-02-20T10:00:36.000Z</time>
      </trkpt>
      <trkpt lat="45.92641" lon="6.50457">
        <ele>1770</ele>
        <time>2014-02-20T10:00:46.000Z</time>
      </trkpt>
      <trkpt lat="45.92634" lon="6.50455">
        <ele>1766</ele>
        <time>2014-02-20T10:00:56.000Z</time>
      </trkpt>
      <trkpt lat="45.92628" lon="6.50455">
        <ele>1768</ele>
        <time>2014-02-20T10:01:06.000Z</time>
      </trkpt>
      <trkpt lat="45.92622" lon="6.5045">
        <ele>1773</ele>
        <time>2014-02-20T10:01:16.000Z</time>
      </trkpt>
      <trkpt lat="45.92617" lon="6.50448">
        <ele>1773</ele>
        <time>2014-02-20T10:01:26.000Z</time>
      </trkpt>
      <trkpt lat="45.92612" lon="6.50447">
        <ele>1773</ele>
        <time>2014-02-20T10:01:36.000Z</time>
      </trkpt>
      <trkpt lat="45.92605" lon="6.50446">
        <ele>1775</ele>
        <time>2014-02-20T10:01:46.000Z</time>
      </trkpt>
      <trkpt lat="45.92599" lon="6.50444">
        <ele>1776</ele>
        <time>2014-02-20T10:01:56.000Z</time>
      </trkpt>
      <trkpt lat="45.92593" lon="6.50444">
        <ele>1777</ele>
        <time>2014-02-20T10:02:06.000Z</time>
      </trkpt>
      <trkpt lat="45.92587" lon="6.50443">
        <ele>1781</ele>
        <time>2014-02-20T10:02:16.000Z</time>
      </trkpt>
      <trkpt lat="45.92581" lon="6.50444">
        <ele>1782</ele>
        <time>2014-02-20T10:02:26.000Z</time>
      </trkpt>
      <trkpt lat="45.92576" lon="6.50442">
        <ele>1783</ele>
        <time>2014-02-20T10:02:36.000Z</time>
      </trkpt>
      <trkpt lat="45.92571" lon="6.50441">
        <ele>1784</ele>
        <time>2014-02-20T10:02:46.000Z</time>
      </trkpt>
      <trkpt lat="45.92565" lon="6.50438">
        <ele>1787</ele>
        <time>2014-02-20T10:02:56.000Z</time>
      </trkpt>
      <trkpt lat="45.92561" lon="6.50435">
        <ele>1789</ele>
        <time>2014-02-20T10:03:06.000Z</time>
      </trkpt>
      <trkpt lat="45.92563" lon="6.50441">
        <ele>1793</ele>
        <time>2014-02-20T10:03:16.000Z</time>
      </trkpt>
      <trkpt lat="45.92567" lon="6.50449">
        <ele>1796</ele>
        <time>2014-02-20T10:03:26.000Z</time>
      </trkpt>
      <trkpt lat="45.92569" lon="6.50456">
        <ele>1795</ele>
        <time>2014-02-20T10:03:36.000Z</time>
      </trkpt>
      <trkpt lat="45.9257" lon="6.50465">
        <ele>1800</ele>
        <time>2014-02-20T10:03:46.000Z</time>
      </trkpt>
      <trkpt lat="45.92571" lon="6.50474">
        <ele>1799</ele>
        <time>2014-02-20T10:03:56.000Z</time>
      </trkpt>
      <trkpt lat="45.92573" lon="6.50483">
        <ele>1801</ele>
        <time>2014-02-20T10:04:06.000Z</time>
      </trkpt>
      <trkpt lat="45.92577" lon="6.50492">
        <ele>1795</ele>
        <time>2014-02-20T10:04:16.000Z</time>
      </trkpt>
      <trkpt lat="45.92578" lon="6.505">
        <ele>1802</ele>
        <time>2014-02-20T10:04:26.000Z</time>
      </trkpt>
      <trkpt lat="45.92577" lon="6.50507">
        <ele>1804</ele>
        <time>2014-02-20T10:04:36.000Z</time>
      </trkpt>
      <trkpt lat="45.92577" lon="6.50513">
        <ele>1805</ele>
        <time>2014-02-20T10:04:46.000Z</time>
      </trkpt>
      <trkpt lat="45.92578" lon="6.50517">
        <ele>1812</ele>
        <time>2014-02-20T10:04:56.000Z</time>
      </trkpt>
      <trkpt lat="45.92571" lon="6.50517">
        <ele>1812</ele>
        <time>2014-02-20T10:05:06.000Z</time>
      </trkpt>
      <trkpt lat="45.92564" lon="6.50515">
        <ele>1810</ele>
        <time>2014-02-20T10:05:16.000Z</time>
      </trkpt>
      <trkpt lat="45.92557" lon="6.50514">
        <ele>1813</ele>
        <time>2014-02-20T10:05:26.000Z</time>
      </trkpt>
      <trkpt lat="45.92555" lon="6.50518">
        <ele>1816</ele>
        <time>2014-02-20T10:05:46.000Z</time>
      </trkpt>
      <trkpt lat="45.92557" lon="6.50526">
        <ele>1815</ele>
        <time>2014-02-20T10:05:56.000Z</time>
      </trkpt>
      <trkpt lat="45.92559" lon="6.50534">
        <ele>1821</ele>
        <time>2014-02-20T10:06:06.000Z</time>
      </trkpt>
      <trkpt lat="45.92563" lon="6.50543">
        <ele>1811</ele>
        <time>2014-02-20T10:06:16.000Z</time>
      </trkpt>
      <trkpt lat="45.92569" lon="6.50551">
        <ele>1815</ele>
        <time>2014-02-20T10:06:26.000Z</time>
      </trkpt>
      <trkpt lat="45.92572" lon="6.50556">
        <ele>1819</ele>
        <time>2014-02-20T10:06:36.000Z</time>
      </trkpt>
      <trkpt lat="45.92563" lon="6.5055">
        <ele>1826</ele>
        <time>2014-02-20T10:06:46.000Z</time>
      </trkpt>
      <trkpt lat="45.92554" lon="6.50548">
        <ele>1829</ele>
        <time>2014-02-20T10:06:56.000Z</time>
      </trkpt>
      <trkpt lat="45.92546" lon="6.50545">
        <ele>1828</ele>
        <time>2014-02-20T10:07:06.000Z</time>
      </trkpt>
      <trkpt lat="45.92542" lon="6.50545">
        <ele>1830</ele>
        <time>2014-02-20T10:07:16.000Z</time>
      </trkpt>
      <trkpt lat="45.92549" lon="6.50551">
        <ele>1830</ele>
        <time>2014-02-20T10:07:26.000Z</time>
      </trkpt>
      <trkpt lat="45.92554" lon="6.50556">
        <ele>1834</ele>
        <time>2014-02-20T10:07:36.000Z</time>
      </trkpt>
      <trkpt lat="45.92559" lon="6.50564">
        <ele>1834</ele>
        <time>2014-02-20T10:07:46.000Z</time>
      </trkpt>
      <trkpt lat="45.92562" lon="6.50571">
        <ele>1830</ele>
        <time>2014-02-20T10:07:56.000Z</time>
      </trkpt>
      <trkpt lat="45.92561" lon="6.50578">
        <ele>1835</ele>
        <time>2014-02-20T10:08:06.000Z</time>
      </trkpt>
      <trkpt lat="45.92564" lon="6.50582">
        <ele>1848</ele>
        <time>2014-02-20T10:08:26.000Z</time>
      </trkpt>
      <trkpt lat="45.92565" lon="6.50589">
        <ele>1845</ele>
        <time>2014-02-20T10:08:36.000Z</time>
      </trkpt>
      <trkpt lat="45.92562" lon="6.50603">
        <ele>1847</ele>
        <time>2014-02-20T10:08:46.000Z</time>
      </trkpt>
      <trkpt lat="45.92559" lon="6.50612">
        <ele>1843</ele>
        <time>2014-02-20T10:08:56.000Z</time>
      </trkpt>
      <trkpt lat="45.92555" lon="6.50615">
        <ele>1844</ele>
        <time>2014-02-20T10:09:06.000Z</time>
      </trkpt>
      <trkpt lat="45.9255" lon="6.50616">
        <ele>1846</ele>
        <time>2014-02-20T10:09:16.000Z</time>
      </trkpt>
      <trkpt lat="45.92549" lon="6.50623">
        <ele>1850</ele>
        <time>2014-02-20T10:09:26.000Z</time>
      </trkpt>
      <trkpt lat="45.92548" lon="6.5063">
        <ele>1850</ele>
        <time>2014-02-20T10:09:36.000Z</time>
      </trkpt>
      <trkpt lat="45.92546" lon="6.50634">
        <ele>1853</ele>
        <time>2014-02-20T10:09:46.000Z</time>
      </trkpt>
      <trkpt lat="45.9254" lon="6.50633">
        <ele>1852</ele>
        <time>2014-02-20T10:09:56.000Z</time>
      </trkpt>
      <trkpt lat="45.92536" lon="6.50633">
        <ele>1856</ele>
        <time>2014-02-20T10:10:06.000Z</time>
      </trkpt>
      <trkpt lat="45.92534" lon="6.50627">
        <ele>1862</ele>
        <time>2014-02-20T10:10:16.000Z</time>
      </trkpt>
      <trkpt lat="45.92534" lon="6.50626">
        <ele>1861</ele>
        <time>2014-02-20T10:10:36.000Z</time>
      </trkpt>
      <trkpt lat="45.92527" lon="6.50627">
        <ele>1860</ele>
        <time>2014-02-20T10:10:46.000Z</time>
      </trkpt>
      <trkpt lat="45.92521" lon="6.50631">
        <ele>1861</ele>
        <time>2014-02-20T10:10:56.000Z</time>
      </trkpt>
      <trkpt lat="45.92516" lon="6.50636">
        <ele>1862</ele>
        <time>2014-02-20T10:11:06.000Z</time>
      </trkpt>
      <trkpt lat="45.92513" lon="6.50642">
        <ele>1863</ele>
        <time>2014-02-20T10:11:16.000Z</time>
      </trkpt>
      <trkpt lat="45.92509" lon="6.50645">
        <ele>1869</ele>
        <time>2014-02-20T10:11:26.000Z</time>
      </trkpt>
      <trkpt lat="45.92503" lon="6.5065">
        <ele>1864</ele>
        <time>2014-02-20T10:11:36.000Z</time>
      </trkpt>
      <trkpt lat="45.92497" lon="6.50652">
        <ele>1869</ele>
        <time>2014-02-20T10:11:46.000Z</time>
      </trkpt>
      <trkpt lat="45.92492" lon="6.50655">
        <ele>1868</ele>
        <time>2014-02-20T10:11:56.000Z</time>
      </trkpt>
      <trkpt lat="45.92487" lon="6.50659">
        <ele>1863</ele>
        <time>2014-02-20T10:12:06.000Z</time>
      </trkpt>
      <trkpt lat="45.92487" lon="6.50668">
        <ele>1868</ele>
        <time>2014-02-20T10:12:16.000Z</time>
      </trkpt>
      <trkpt lat="45.92488" lon="6.50669">
        <ele>1873</ele>
        <time>2014-02-20T10:12:26.000Z</time>
      </trkpt>
      <trkpt lat="45.92488" lon="6.50676">
        <ele>1871</ele>
        <time>2014-02-20T10:12:36.000Z</time>
      </trkpt>
      <trkpt lat="45.92487" lon="6.50682">
        <ele>1873</ele>
        <time>2014-02-20T10:12:46.000Z</time>
      </trkpt>
      <trkpt lat="45.92481" lon="6.50688">
        <ele>1878</ele>
        <time>2014-02-20T10:12:56.000Z</time>
      </trkpt>
      <trkpt lat="45.92476" lon="6.50686">
        <ele>1876</ele>
        <time>2014-02-20T10:13:06.000Z</time>
      </trkpt>
      <trkpt lat="45.92471" lon="6.50685">
        <ele>1878</ele>
        <time>2014-02-20T10:13:16.000Z</time>
      </trkpt>
      <trkpt lat="45.92465" lon="6.50686">
        <ele>1884</ele>
        <time>2014-02-20T10:13:26.000Z</time>
      </trkpt>
      <trkpt lat="45.9246" lon="6.50683">
        <ele>1886</ele>
        <time>2014-02-20T10:13:36.000Z</time>
      </trkpt>
      <trkpt lat="45.92454" lon="6.50681">
        <ele>1889</ele>
        <time>2014-02-20T10:13:46.000Z</time>
      </trkpt>
      <trkpt lat="45.92449" lon="6.50681">
        <ele>1887</ele>
        <time>2014-02-20T10:13:56.000Z</time>
      </trkpt>
      <trkpt lat="45.92449" lon="6.50681">
        <ele>1884</ele>
        <time>2014-02-20T10:14:36.000Z</time>
      </trkpt>
      <trkpt lat="45.9244" lon="6.50684">
        <ele>1881</ele>
        <time>2014-02-20T10:14:46.000Z</time>
      </trkpt>
      <trkpt lat="45.92432" lon="6.50681">
        <ele>1895</ele>
        <time>2014-02-20T10:14:56.000Z</time>
      </trkpt>
      <trkpt lat="45.92426" lon="6.50682">
        <ele>1893</ele>
        <time>2014-02-20T10:15:06.000Z</time>
      </trkpt>
      <trkpt lat="45.9242" lon="6.50683">
        <ele>1897</ele>
        <time>2014-02-20T10:15:16.000Z</time>
      </trkpt>
      <trkpt lat="45.92415" lon="6.50686">
        <ele>1894</ele>
        <time>2014-02-20T10:15:26.000Z</time>
      </trkpt>
      <trkpt lat="45.9241" lon="6.50682">
        <ele>1905</ele>
        <time>2014-02-20T10:15:36.000Z</time>
      </trkpt>
      <trkpt lat="45.92405" lon="6.50681">
        <ele>1898</ele>
        <time>2014-02-20T10:15:46.000Z</time>
      </trkpt>
      <trkpt lat="45.92401" lon="6.5068">
        <ele>1906</ele>
        <time>2014-02-20T10:15:56.000Z</time>
      </trkpt>
      <trkpt lat="45.92398" lon="6.50677">
        <ele>1910</ele>
        <time>2014-02-20T10:16:06.000Z</time>
      </trkpt>
      <trkpt lat="45.92394" lon="6.50676">
        <ele>1909</ele>
        <time>2014-02-20T10:16:16.000Z</time>
      </trkpt>
      <trkpt lat="45.92388" lon="6.50672">
        <ele>1905</ele>
        <time>2014-02-20T10:16:26.000Z</time>
      </trkpt>
      <trkpt lat="45.92383" lon="6.50668">
        <ele>1910</ele>
        <time>2014-02-20T10:16:36.000Z</time>
      </trkpt>
      <trkpt lat="45.92377" lon="6.50668">
        <ele>1906</ele>
        <time>2014-02-20T10:16:46.000Z</time>
      </trkpt>
      <trkpt lat="45.92373" lon="6.50666">
        <ele>1908</ele>
        <time>2014-02-20T10:16:56.000Z</time>
      </trkpt>
      <trkpt lat="45.92369" lon="6.50662">
        <ele>1909</ele>
        <time>2014-02-20T10:17:06.000Z</time>
      </trkpt>
      <trkpt lat="45.92362" lon="6.50657">
        <ele>1913</ele>
        <time>2014-02-20T10:17:16.000Z</time>
      </trkpt>
      <trkpt lat="45.92355" lon="6.50653">
        <ele>1915</ele>
        <time>2014-02-20T10:17:26.000Z</time>
      </trkpt>
      <trkpt lat="45.92349" lon="6.50649">
        <ele>1921</ele>
        <time>2014-02-20T10:17:36.000Z</time>
      </trkpt>
      <trkpt lat="45.92346" lon="6.50646">
        <ele>1922</ele>
        <time>2014-02-20T10:17:46.000Z</time>
      </trkpt>
      <trkpt lat="45.92341" lon="6.50644">
        <ele>1923</ele>
        <time>2014-02-20T10:17:56.000Z</time>
      </trkpt>
      <trkpt lat="45.92337" lon="6.50641">
        <ele>1921</ele>
        <time>2014-02-20T10:18:06.000Z</time>
      </trkpt>
      <trkpt lat="45.92335" lon="6.50638">
        <ele>1923</ele>
        <time>2014-02-20T10:18:16.000Z</time>
      </trkpt>
      <trkpt lat="45.92332" lon="6.50634">
        <ele>1920</ele>
        <time>2014-02-20T10:18:26.000Z</time>
      </trkpt>
      <trkpt lat="45.92329" lon="6.50629">
        <ele>1935</ele>
        <time>2014-02-20T10:18:36.000Z</time>
      </trkpt>
      <trkpt lat="45.92324" lon="6.50627">
        <ele>1931</ele>
        <time>2014-02-20T10:18:46.000Z</time>
      </trkpt>
      <trkpt lat="45.92315" lon="6.50628">
        <ele>1930</ele>
        <time>2014-02-20T10:18:56.000Z</time>
      </trkpt>
      <trkpt lat="45.92311" lon="6.50622">
        <ele>1927</ele>
        <time>2014-02-20T10:19:06.000Z</time>
      </trkpt>
      <trkpt lat="45.92314" lon="6.50626">
        <ele>1938</ele>
        <time>2014-02-20T10:19:36.000Z</time>
      </trkpt>
      <trkpt lat="45.92318" lon="6.50637">
        <ele>1944</ele>
        <time>2014-02-20T10:19:46.000Z</time>
      </trkpt>
      <trkpt lat="45.92319" lon="6.50642">
        <ele>1937</ele>
        <time>2014-02-20T10:19:56.000Z</time>
      </trkpt>
      <trkpt lat="45.92318" lon="6.5065">
        <ele>1937</ele>
        <time>2014-02-20T10:20:06.000Z</time>
      </trkpt>
      <trkpt lat="45.9232" lon="6.50662">
        <ele>1949</ele>
        <time>2014-02-20T10:20:16.000Z</time>
      </trkpt>
      <trkpt lat="45.92322" lon="6.5067">
        <ele>1942</ele>
        <time>2014-02-20T10:20:26.000Z</time>
      </trkpt>
      <trkpt lat="45.92323" lon="6.50681">
        <ele>1934</ele>
        <time>2014-02-20T10:20:36.000Z</time>
      </trkpt>
      <trkpt lat="45.92323" lon="6.50687">
        <ele>1938</ele>
        <time>2014-02-20T10:20:46.000Z</time>
      </trkpt>
      <trkpt lat="45.92322" lon="6.50695">
        <ele>1933</ele>
        <time>2014-02-20T10:20:56.000Z</time>
      </trkpt>
      <trkpt lat="45.9232" lon="6.50704">
        <ele>1935</ele>
        <time>2014-02-20T10:21:06.000Z</time>
      </trkpt>
      <trkpt lat="45.92318" lon="6.50711">
        <ele>1944</ele>
        <time>2014-02-20T10:21:16.000Z</time>
      </trkpt>
      <trkpt lat="45.92318" lon="6.50724">
        <ele>1945</ele>
        <time>2014-02-20T10:21:26.000Z</time>
      </trkpt>
      <trkpt lat="45.9232" lon="6.50731">
        <ele>1952</ele>
        <time>2014-02-20T10:21:36.000Z</time>
      </trkpt>
      <trkpt lat="45.92318" lon="6.50734">
        <ele>1947</ele>
        <time>2014-02-20T10:21:46.000Z</time>
      </trkpt>
      <trkpt lat="45.92312" lon="6.50729">
        <ele>1951</ele>
        <time>2014-02-20T10:21:56.000Z</time>
      </trkpt>
      <trkpt lat="45.92309" lon="6.50726">
        <ele>1955</ele>
        <time>2014-02-20T10:22:06.000Z</time>
      </trkpt>
      <trkpt lat="45.92307" lon="6.50725">
        <ele>1954</ele>
        <time>2014-02-20T10:22:16.000Z</time>
      </trkpt>
      <trkpt lat="45.92304" lon="6.50721">
        <ele>1952</ele>
        <time>2014-02-20T10:22:26.000Z</time>
      </trkpt>
      <trkpt lat="45.92299" lon="6.50713">
        <ele>1956</ele>
        <time>2014-02-20T10:22:36.000Z</time>
      </trkpt>
      <trkpt lat="45.92292" lon="6.50706">
        <ele>1956</ele>
        <time>2014-02-20T10:22:46.000Z</time>
      </trkpt>
      <trkpt lat="45.92287" lon="6.50703">
        <ele>1954</ele>
        <time>2014-02-20T10:22:56.000Z</time>
      </trkpt>
      <trkpt lat="45.92285" lon="6.50698">
        <ele>1958</ele>
        <time>2014-02-20T10:23:06.000Z</time>
      </trkpt>
      <trkpt lat="45.92283" lon="6.50691">
        <ele>1956</ele>
        <time>2014-02-20T10:23:16.000Z</time>
      </trkpt>
      <trkpt lat="45.92282" lon="6.50695">
        <ele>1959</ele>
        <time>2014-02-20T10:23:26.000Z</time>
      </trkpt>
      <trkpt lat="45.9228" lon="6.50703">
        <ele>1961</ele>
        <time>2014-02-20T10:23:36.000Z</time>
      </trkpt>
      <trkpt lat="45.92279" lon="6.5071">
        <ele>1959</ele>
        <time>2014-02-20T10:23:46.000Z</time>
      </trkpt>
      <trkpt lat="45.92279" lon="6.50719">
        <ele>1956</ele>
        <time>2014-02-20T10:23:56.000Z</time>
      </trkpt>
      <trkpt lat="45.92282" lon="6.50724">
        <ele>1972</ele>
        <time>2014-02-20T10:24:06.000Z</time>
      </trkpt>
      <trkpt lat="45.92283" lon="6.50728">
        <ele>1970</ele>
        <time>2014-02-20T10:24:16.000Z</time>
      </trkpt>
      <trkpt lat="45.92283" lon="6.50736">
        <ele>1967</ele>
        <time>2014-02-20T10:24:26.000Z</time>
      </trkpt>
      <trkpt lat="45.92284" lon="6.50744">
        <ele>1977</ele>
        <time>2014-02-20T10:24:36.000Z</time>
      </trkpt>
      <trkpt lat="45.92286" lon="6.50751">
        <ele>1979</ele>
        <time>2014-02-20T10:24:46.000Z</time>
      </trkpt>
      <trkpt lat="45.92289" lon="6.5076">
        <ele>1981</ele>
        <time>2014-02-20T10:24:56.000Z</time>
      </trkpt>
      <trkpt lat="45.92291" lon="6.50767">
        <ele>1983</ele>
        <time>2014-02-20T10:25:06.000Z</time>
      </trkpt>
      <trkpt lat="45.9229" lon="6.50777">
        <ele>1983</ele>
        <time>2014-02-20T10:25:16.000Z</time>
      </trkpt>
      <trkpt lat="45.92292" lon="6.50785">
        <ele>1983</ele>
        <time>2014-02-20T10:25:26.000Z</time>
      </trkpt>
      <trkpt lat="45.92295" lon="6.50793">
        <ele>1986</ele>
        <time>2014-02-20T10:25:36.000Z</time>
      </trkpt>
      <trkpt lat="45.92296" lon="6.508">
        <ele>1985</ele>
        <time>2014-02-20T10:25:46.000Z</time>
      </trkpt>
      <trkpt lat="45.92294" lon="6.50804">
        <ele>1989</ele>
        <time>2014-02-20T10:25:56.000Z</time>
      </trkpt>
      <trkpt lat="45.92294" lon="6.50809">
        <ele>1989</ele>
        <time>2014-02-20T10:26:06.000Z</time>
      </trkpt>
      <trkpt lat="45.92295" lon="6.50818">
        <ele>1988</ele>
        <time>2014-02-20T10:26:16.000Z</time>
      </trkpt>
      <trkpt lat="45.92292" lon="6.50817">
        <ele>1996</ele>
        <time>2014-02-20T10:27:06.000Z</time>
      </trkpt>
      <trkpt lat="45.92292" lon="6.50826">
        <ele>1993</ele>
        <time>2014-02-20T10:27:16.000Z</time>
      </trkpt>
      <trkpt lat="45.92292" lon="6.5083">
        <ele>1997</ele>
        <time>2014-02-20T10:27:26.000Z</time>
      </trkpt>
      <trkpt lat="45.92291" lon="6.50834">
        <ele>1993</ele>
        <time>2014-02-20T10:27:36.000Z</time>
      </trkpt>
      <trkpt lat="45.92291" lon="6.50846">
        <ele>2002</ele>
        <time>2014-02-20T10:27:46.000Z</time>
      </trkpt>
      <trkpt lat="45.92291" lon="6.50855">
        <ele>1999</ele>
        <time>2014-02-20T10:27:56.000Z</time>
      </trkpt>
      <trkpt lat="45.9229" lon="6.50861">
        <ele>1997</ele>
        <time>2014-02-20T10:28:06.000Z</time>
      </trkpt>
      <trkpt lat="45.92293" lon="6.50873">
        <ele>2001</ele>
        <time>2014-02-20T10:28:16.000Z</time>
      </trkpt>
      <trkpt lat="45.92295" lon="6.50871">
        <ele>2021</ele>
        <time>2014-02-20T10:28:36.000Z</time>
      </trkpt>
      <trkpt lat="45.92301" lon="6.50879">
        <ele>2030</ele>
        <time>2014-02-20T10:28:46.000Z</time>
      </trkpt>
      <trkpt lat="45.92305" lon="6.50883">
        <ele>2006</ele>
        <time>2014-02-20T10:28:56.000Z</time>
      </trkpt>
      <trkpt lat="45.92306" lon="6.50888">
        <ele>1999</ele>
        <time>2014-02-20T10:29:06.000Z</time>
      </trkpt>
      <trkpt lat="45.92308" lon="6.50897">
        <ele>2001</ele>
        <time>2014-02-20T10:29:16.000Z</time>
      </trkpt>
      <trkpt lat="45.9231" lon="6.50906">
        <ele>1998</ele>
        <time>2014-02-20T10:29:26.000Z</time>
      </trkpt>
      <trkpt lat="45.92313" lon="6.50914">
        <ele>1996</ele>
        <time>2014-02-20T10:29:36.000Z</time>
      </trkpt>
      <trkpt lat="45.92316" lon="6.50918">
        <ele>1997</ele>
        <time>2014-02-20T10:29:46.000Z</time>
      </trkpt>
      <trkpt lat="45.92325" lon="6.50921">
        <ele>2001</ele>
        <time>2014-02-20T10:29:56.000Z</time>
      </trkpt>
      <trkpt lat="45.92331" lon="6.50923">
        <ele>1997</ele>
        <time>2014-02-20T10:30:06.000Z</time>
      </trkpt>
      <trkpt lat="45.92336" lon="6.50933">
        <ele>1997</ele>
        <time>2014-02-20T10:30:16.000Z</time>
      </trkpt>
      <trkpt lat="45.92341" lon="6.50938">
        <ele>1996</ele>
        <time>2014-02-20T10:30:26.000Z</time>
      </trkpt>
      <trkpt lat="45.92347" lon="6.50939">
        <ele>2004</ele>
        <time>2014-02-20T10:30:36.000Z</time>
      </trkpt>
      <trkpt lat="45.92352" lon="6.50937">
        <ele>2024</ele>
        <time>2014-02-20T10:30:46.000Z</time>
      </trkpt>
      <trkpt lat="45.92363" lon="6.50931">
        <ele>2033</ele>
        <time>2014-02-20T10:30:56.000Z</time>
      </trkpt>
      <trkpt lat="45.92375" lon="6.50926">
        <ele>2028</ele>
        <time>2014-02-20T10:31:06.000Z</time>
      </trkpt>
      <trkpt lat="45.9238" lon="6.50912">
        <ele>2011</ele>
        <time>2014-02-20T10:31:16.000Z</time>
      </trkpt>
      <trkpt lat="45.92383" lon="6.50902">
        <ele>2015</ele>
        <time>2014-02-20T10:31:26.000Z</time>
      </trkpt>
      <trkpt lat="45.92379" lon="6.50906">
        <ele>2008</ele>
        <time>2014-02-20T10:31:36.000Z</time>
      </trkpt>
      <trkpt lat="45.92378" lon="6.50906">
        <ele>1992</ele>
        <time>2014-02-20T10:32:06.000Z</time>
      </trkpt>
      <trkpt lat="45.92374" lon="6.50911">
        <ele>2000</ele>
        <time>2014-02-20T10:32:16.000Z</time>
      </trkpt>
      <trkpt lat="45.92383" lon="6.50918">
        <ele>1997</ele>
        <time>2014-02-20T10:32:26.000Z</time>
      </trkpt>
      <trkpt lat="45.92387" lon="6.50915">
        <ele>2007</ele>
        <time>2014-02-20T10:32:36.000Z</time>
      </trkpt>
      <trkpt lat="45.92395" lon="6.50919">
        <ele>2019</ele>
        <time>2014-02-20T10:32:46.000Z</time>
      </trkpt>
      <trkpt lat="45.9239" lon="6.50916">
        <ele>2026</ele>
        <time>2014-02-20T10:32:56.000Z</time>
      </trkpt>
      <trkpt lat="45.92387" lon="6.50904">
        <ele>1988</ele>
        <time>2014-02-20T10:33:06.000Z</time>
      </trkpt>
      <trkpt lat="45.92387" lon="6.50895">
        <ele>1979</ele>
        <time>2014-02-20T10:33:16.000Z</time>
      </trkpt>
      <trkpt lat="45.92386" lon="6.50901">
        <ele>2012</ele>
        <time>2014-02-20T10:33:36.000Z</time>
      </trkpt>
      <trkpt lat="45.9238" lon="6.50901">
        <ele>1995</ele>
        <time>2014-02-20T10:33:46.000Z</time>
      </trkpt>
      <trkpt lat="45.92383" lon="6.50904">
        <ele>2002</ele>
        <time>2014-02-20T10:34:26.000Z</time>
      </trkpt>
      <trkpt lat="45.92387" lon="6.50911">
        <ele>2009</ele>
        <time>2014-02-20T10:34:36.000Z</time>
      </trkpt>
      <trkpt lat="45.92384" lon="6.50906">
        <ele>2014</ele>
        <time>2014-02-20T10:34:46.000Z</time>
      </trkpt>
      <trkpt lat="45.92378" lon="6.50903">
        <ele>2035</ele>
        <time>2014-02-20T10:34:56.000Z</time>
      </trkpt>
      <trkpt lat="45.92378" lon="6.50907">
        <ele>2024</ele>
        <time>2014-02-20T10:35:06.000Z</time>
      </trkpt>
      <trkpt lat="45.92379" lon="6.50911">
        <ele>2005</ele>
        <time>2014-02-20T10:35:16.000Z</time>
      </trkpt>
      <trkpt lat="45.92378" lon="6.50907">
        <ele>1993</ele>
        <time>2014-02-20T10:35:36.000Z</time>
      </trkpt>
      <trkpt lat="45.92371" lon="6.50902">
        <ele>1985</ele>
        <time>2014-02-20T10:35:46.000Z</time>
      </trkpt>
      <trkpt lat="45.92371" lon="6.50902">
        <ele>1950</ele>
        <time>2014-02-20T10:35:56.000Z</time>
      </trkpt>
      <trkpt lat="45.9236" lon="6.50893">
        <ele>1971</ele>
        <time>2014-02-20T10:36:07.000Z</time>
      </trkpt>
      <trkpt lat="45.9236" lon="6.50889">
        <ele>1964</ele>
        <time>2014-02-20T10:36:17.000Z</time>
      </trkpt>
      <trkpt lat="45.9236" lon="6.50905">
        <ele>1959</ele>
        <time>2014-02-20T10:36:27.000Z</time>
      </trkpt>
      <trkpt lat="45.9236" lon="6.50895">
        <ele>1961</ele>
        <time>2014-02-20T10:36:37.000Z</time>
      </trkpt>
      <trkpt lat="45.92363" lon="6.50895">
        <ele>1974</ele>
        <time>2014-02-20T10:36:47.000Z</time>
      </trkpt>
      <trkpt lat="45.92366" lon="6.50905">
        <ele>1975</ele>
        <time>2014-02-20T10:36:57.000Z</time>
      </trkpt>
      <trkpt lat="45.92369" lon="6.50919">
        <ele>1959</ele>
        <time>2014-02-20T10:37:07.000Z</time>
      </trkpt>
      <trkpt lat="45.9237" lon="6.50922">
        <ele>1961</ele>
        <time>2014-02-20T10:37:17.000Z</time>
      </trkpt>
      <trkpt lat="45.92359" lon="6.50916">
        <ele>1969</ele>
        <time>2014-02-20T10:37:27.000Z</time>
      </trkpt>
      <trkpt lat="45.92354" lon="6.50926">
        <ele>1964</ele>
        <time>2014-02-20T10:37:37.000Z</time>
      </trkpt>
      <trkpt lat="45.92357" lon="6.50907">
        <ele>1976</ele>
        <time>2014-02-20T10:37:47.000Z</time>
      </trkpt>
      <trkpt lat="45.92361" lon="6.50903">
        <ele>1993</ele>
        <time>2014-02-20T10:37:57.000Z</time>
      </trkpt>
      <trkpt lat="45.92357" lon="6.50897">
        <ele>1957</ele>
        <time>2014-02-20T10:38:07.000Z</time>
      </trkpt>
      <trkpt lat="45.92351" lon="6.50884">
        <ele>1965</ele>
        <time>2014-02-20T10:38:17.000Z</time>
      </trkpt>
      <trkpt lat="45.9235" lon="6.50895">
        <ele>1969</ele>
        <time>2014-02-20T10:38:27.000Z</time>
      </trkpt>
      <trkpt lat="45.92351" lon="6.50898">
        <ele>1971</ele>
        <time>2014-02-20T10:38:47.000Z</time>
      </trkpt>
      <trkpt lat="45.92358" lon="6.50901">
        <ele>2013</ele>
        <time>2014-02-20T10:38:57.000Z</time>
      </trkpt>
      <trkpt lat="45.92366" lon="6.50903">
        <ele>2008</ele>
        <time>2014-02-20T10:39:07.000Z</time>
      </trkpt>
      <trkpt lat="45.92363" lon="6.50898">
        <ele>2003</ele>
        <time>2014-02-20T10:39:27.000Z</time>
      </trkpt>
      <trkpt lat="45.92377" lon="6.50913">
        <ele>2004</ele>
        <time>2014-02-20T10:39:37.000Z</time>
      </trkpt>
      <trkpt lat="45.9238" lon="6.50915">
        <ele>1986</ele>
        <time>2014-02-20T10:39:47.000Z</time>
      </trkpt>
      <trkpt lat="45.92381" lon="6.50917">
        <ele>1994</ele>
        <time>2014-02-20T10:39:57.000Z</time>
      </trkpt>
      <trkpt lat="45.92378" lon="6.50913">
        <ele>1981</ele>
        <time>2014-02-20T10:40:27.000Z</time>
      </trkpt>
      <trkpt lat="45.92378" lon="6.50912">
        <ele>1991</ele>
        <time>2014-02-20T10:40:37.000Z</time>
      </trkpt>
      <trkpt lat="45.9238" lon="6.50906">
        <ele>1995</ele>
        <time>2014-02-20T10:40:47.000Z</time>
      </trkpt>
      <trkpt lat="45.92382" lon="6.50909">
        <ele>2001</ele>
        <time>2014-02-20T10:40:57.000Z</time>
      </trkpt>
      <trkpt lat="45.92384" lon="6.50917">
        <ele>1997</ele>
        <time>2014-02-20T10:41:07.000Z</time>
      </trkpt>
      <trkpt lat="45.92406" lon="6.50928">
        <ele>1994</ele>
        <time>2014-02-20T10:41:17.000Z</time>
      </trkpt>
      <trkpt lat="45.92419" lon="6.50916">
        <ele>1989</ele>
        <time>2014-02-20T10:41:27.000Z</time>
      </trkpt>
      <trkpt lat="45.92422" lon="6.50912">
        <ele>1999</ele>
        <time>2014-02-20T10:41:37.000Z</time>
      </trkpt>
      <trkpt lat="45.92429" lon="6.50912">
        <ele>2003</ele>
        <time>2014-02-20T10:41:47.000Z</time>
      </trkpt>
      <trkpt lat="45.92433" lon="6.50911">
        <ele>2012</ele>
        <time>2014-02-20T10:41:57.000Z</time>
      </trkpt>
      <trkpt lat="45.92436" lon="6.50879">
        <ele>2008</ele>
        <time>2014-02-20T10:42:07.000Z</time>
      </trkpt>
      <trkpt lat="45.92461" lon="6.50859">
        <ele>2008</ele>
        <time>2014-02-20T10:42:17.000Z</time>
      </trkpt>
      <trkpt lat="45.92463" lon="6.50866">
        <ele>1990</ele>
        <time>2014-02-20T10:42:27.000Z</time>
      </trkpt>
      <trkpt lat="45.92469" lon="6.50824">
        <ele>2005</ele>
        <time>2014-02-20T10:42:37.000Z</time>
      </trkpt>
      <trkpt lat="45.9248" lon="6.50775">
        <ele>1996</ele>
        <time>2014-02-20T10:42:47.000Z</time>
      </trkpt>
      <trkpt lat="45.92469" lon="6.50763">
        <ele>1945</ele>
        <time>2014-02-20T10:42:57.000Z</time>
      </trkpt>
      <trkpt lat="45.92473" lon="6.50758">
        <ele>1966</ele>
        <time>2014-02-20T10:43:07.000Z</time>
      </trkpt>
      <trkpt lat="45.92454" lon="6.50718">
        <ele>1940</ele>
        <time>2014-02-20T10:43:17.000Z</time>
      </trkpt>
      <trkpt lat="45.9243" lon="6.50655">
        <ele>1905</ele>
        <time>2014-02-20T10:43:27.000Z</time>
      </trkpt>
      <trkpt lat="45.92407" lon="6.5061">
        <ele>1894</ele>
        <time>2014-02-20T10:43:37.000Z</time>
      </trkpt>
      <trkpt lat="45.92395" lon="6.50564">
        <ele>1882</ele>
        <time>2014-02-20T10:43:47.000Z</time>
      </trkpt>
      <trkpt lat="45.9242" lon="6.50534">
        <ele>1872</ele>
        <time>2014-02-20T10:43:57.000Z</time>
      </trkpt>
      <trkpt lat="45.92453" lon="6.505">
        <ele>1860</ele>
        <time>2014-02-20T10:44:07.000Z</time>
      </trkpt>
      <trkpt lat="45.92455" lon="6.50492">
        <ele>1858</ele>
        <time>2014-02-20T10:44:17.000Z</time>
      </trkpt>
      <trkpt lat="45.92474" lon="6.50494">
        <ele>1859</ele>
        <time>2014-02-20T10:44:27.000Z</time>
      </trkpt>
      <trkpt lat="45.92447" lon="6.50453">
        <ele>1839</ele>
        <time>2014-02-20T10:44:37.000Z</time>
      </trkpt>
      <trkpt lat="45.92443" lon="6.50425">
        <ele>1825</ele>
        <time>2014-02-20T10:44:47.000Z</time>
      </trkpt>
      <trkpt lat="45.92445" lon="6.50415">
        <ele>1838</ele>
        <time>2014-02-20T10:44:57.000Z</time>
      </trkpt>
      <trkpt lat="45.92497" lon="6.5038">
        <ele>1817</ele>
        <time>2014-02-20T10:45:07.000Z</time>
      </trkpt>
      <trkpt lat="45.925" lon="6.50383">
        <ele>1806</ele>
        <time>2014-02-20T10:45:17.000Z</time>
      </trkpt>
      <trkpt lat="45.92484" lon="6.50365">
        <ele>1805</ele>
        <time>2014-02-20T10:45:27.000Z</time>
      </trkpt>
      <trkpt lat="45.92498" lon="6.50334">
        <ele>1791</ele>
        <time>2014-02-20T10:45:37.000Z</time>
      </trkpt>
      <trkpt lat="45.92491" lon="6.50308">
        <ele>1778</ele>
        <time>2014-02-20T10:45:47.000Z</time>
      </trkpt>
      <trkpt lat="45.92465" lon="6.50297">
        <ele>1762</ele>
        <time>2014-02-20T10:45:57.000Z</time>
      </trkpt>
      <trkpt lat="45.92462" lon="6.50286">
        <ele>1771</ele>
        <time>2014-02-20T10:46:07.000Z</time>
      </trkpt>
      <trkpt lat="45.92487" lon="6.50282">
        <ele>1774</ele>
        <time>2014-02-20T10:46:17.000Z</time>
      </trkpt>
      <trkpt lat="45.92497" lon="6.50262">
        <ele>1734</ele>
        <time>2014-02-20T10:46:27.000Z</time>
      </trkpt>
      <trkpt lat="45.92489" lon="6.50249">
        <ele>1737</ele>
        <time>2014-02-20T10:46:37.000Z</time>
      </trkpt>
      <trkpt lat="45.92494" lon="6.5019">
        <ele>1750</ele>
        <time>2014-02-20T10:46:47.000Z</time>
      </trkpt>
      <trkpt lat="45.92502" lon="6.50146">
        <ele>1745</ele>
        <time>2014-02-20T10:46:57.000Z</time>
      </trkpt>
      <trkpt lat="45.92501" lon="6.50143">
        <ele>1731</ele>
        <time>2014-02-20T10:47:07.000Z</time>
      </trkpt>
      <trkpt lat="45.925" lon="6.50131">
        <ele>1734</ele>
        <time>2014-02-20T10:47:17.000Z</time>
      </trkpt>
      <trkpt lat="45.92508" lon="6.5012">
        <ele>1727</ele>
        <time>2014-02-20T10:47:27.000Z</time>
      </trkpt>
      <trkpt lat="45.92513" lon="6.50089">
        <ele>1722</ele>
        <time>2014-02-20T10:47:37.000Z</time>
      </trkpt>
      <trkpt lat="45.92492" lon="6.50076">
        <ele>1697</ele>
        <time>2014-02-20T10:47:47.000Z</time>
      </trkpt>
      <trkpt lat="45.92495" lon="6.50077">
        <ele>1697</ele>
        <time>2014-02-20T10:48:07.000Z</time>
      </trkpt>
      <trkpt lat="45.92518" lon="6.50091">
        <ele>1702</ele>
        <time>2014-02-20T10:48:17.000Z</time>
      </trkpt>
      <trkpt lat="45.92533" lon="6.50072">
        <ele>1703</ele>
        <time>2014-02-20T10:48:27.000Z</time>
      </trkpt>
      <trkpt lat="45.92547" lon="6.50053">
        <ele>1690</ele>
        <time>2014-02-20T10:48:37.000Z</time>
      </trkpt>
      <trkpt lat="45.9256" lon="6.5007">
        <ele>1667</ele>
        <time>2014-02-20T10:48:47.000Z</time>
      </trkpt>
      <trkpt lat="45.92546" lon="6.50072">
        <ele>1686</ele>
        <time>2014-02-20T10:48:57.000Z</time>
      </trkpt>
      <trkpt lat="45.92545" lon="6.50064">
        <ele>1676</ele>
        <time>2014-02-20T10:49:07.000Z</time>
      </trkpt>
      <trkpt lat="45.92551" lon="6.50041">
        <ele>1675</ele>
        <time>2014-02-20T10:49:17.000Z</time>
      </trkpt>
      <trkpt lat="45.92557" lon="6.50039">
        <ele>1679</ele>
        <time>2014-02-20T10:49:27.000Z</time>
      </trkpt>
      <trkpt lat="45.92558" lon="6.5003">
        <ele>1677</ele>
        <time>2014-02-20T10:49:37.000Z</time>
      </trkpt>
      <trkpt lat="45.92578" lon="6.50048">
        <ele>1659</ele>
        <time>2014-02-20T10:49:47.000Z</time>
      </trkpt>
      <trkpt lat="45.92603" lon="6.50073">
        <ele>1655</ele>
        <time>2014-02-20T10:49:57.000Z</time>
      </trkpt>
      <trkpt lat="45.92625" lon="6.50095">
        <ele>1650</ele>
        <time>2014-02-20T10:50:07.000Z</time>
      </trkpt>
      <trkpt lat="45.92629" lon="6.50089">
        <ele>1643</ele>
        <time>2014-02-20T10:50:17.000Z</time>
      </trkpt>
      <trkpt lat="45.92627" lon="6.50087">
        <ele>1643</ele>
        <time>2014-02-20T10:50:27.000Z</time>
      </trkpt>
      <trkpt lat="45.92626" lon="6.50061">
        <ele>1643</ele>
        <time>2014-02-20T10:50:37.000Z</time>
      </trkpt>
      <trkpt lat="45.92638" lon="6.50048">
        <ele>1631</ele>
        <time>2014-02-20T10:50:47.000Z</time>
      </trkpt>
      <trkpt lat="45.92635" lon="6.49993">
        <ele>1621</ele>
        <time>2014-02-20T10:50:57.000Z</time>
      </trkpt>
      <trkpt lat="45.92628" lon="6.49991">
        <ele>1623</ele>
        <time>2014-02-20T10:51:07.000Z</time>
      </trkpt>
      <trkpt lat="45.92632" lon="6.49969">
        <ele>1627</ele>
        <time>2014-02-20T10:51:17.000Z</time>
      </trkpt>
      <trkpt lat="45.92637" lon="6.49935">
        <ele>1613</ele>
        <time>2014-02-20T10:51:27.000Z</time>
      </trkpt>
      <trkpt lat="45.92644" lon="6.49944">
        <ele>1599</ele>
        <time>2014-02-20T10:51:37.000Z</time>
      </trkpt>
      <trkpt lat="45.92639" lon="6.49922">
        <ele>1606</ele>
        <time>2014-02-20T10:51:47.000Z</time>
      </trkpt>
      <trkpt lat="45.92634" lon="6.49876">
        <ele>1603</ele>
        <time>2014-02-20T10:51:57.000Z</time>
      </trkpt>
      <trkpt lat="45.92639" lon="6.49861">
        <ele>1603</ele>
        <time>2014-02-20T10:52:07.000Z</time>
      </trkpt>
      <trkpt lat="45.92643" lon="6.49855">
        <ele>1594</ele>
        <time>2014-02-20T10:52:17.000Z</time>
      </trkpt>
      <trkpt lat="45.92658" lon="6.49861">
        <ele>1595</ele>
        <time>2014-02-20T10:52:27.000Z</time>
      </trkpt>
      <trkpt lat="45.92659" lon="6.49867">
        <ele>1586</ele>
        <time>2014-02-20T10:52:37.000Z</time>
      </trkpt>
      <trkpt lat="45.92657" lon="6.49838">
        <ele>1582</ele>
        <time>2014-02-20T10:52:47.000Z</time>
      </trkpt>
      <trkpt lat="45.92652" lon="6.49806">
        <ele>1578</ele>
        <time>2014-02-20T10:52:57.000Z</time>
      </trkpt>
      <trkpt lat="45.92651" lon="6.4978">
        <ele>1571</ele>
        <time>2014-02-20T10:53:07.000Z</time>
      </trkpt>
      <trkpt lat="45.92651" lon="6.49771">
        <ele>1571</ele>
        <time>2014-02-20T10:53:17.000Z</time>
      </trkpt>
      <trkpt lat="45.92646" lon="6.49745">
        <ele>1564</ele>
        <time>2014-02-20T10:53:27.000Z</time>
      </trkpt>
      <trkpt lat="45.92639" lon="6.49718">
        <ele>1565</ele>
        <time>2014-02-20T10:53:37.000Z</time>
      </trkpt>
      <trkpt lat="45.9263" lon="6.49685">
        <ele>1567</ele>
        <time>2014-02-20T10:53:47.000Z</time>
      </trkpt>
      <trkpt lat="45.92634" lon="6.49616">
        <ele>1557</ele>
        <time>2014-02-20T10:53:57.000Z</time>
      </trkpt>
      <trkpt lat="45.92638" lon="6.49551">
        <ele>1545</ele>
        <time>2014-02-20T10:54:07.000Z</time>
      </trkpt>
      <trkpt lat="45.92647" lon="6.49506">
        <ele>1547</ele>
        <time>2014-02-20T10:54:17.000Z</time>
      </trkpt>
      <trkpt lat="45.92683" lon="6.49461">
        <ele>1543</ele>
        <time>2014-02-20T10:54:27.000Z</time>
      </trkpt>
      <trkpt lat="45.92695" lon="6.49456">
        <ele>1547</ele>
        <time>2014-02-20T10:54:37.000Z</time>
      </trkpt>
      <trkpt lat="45.927" lon="6.49455">
        <ele>1539</ele>
        <time>2014-02-20T10:54:47.000Z</time>
      </trkpt>
      <trkpt lat="45.92705" lon="6.49456">
        <ele>1535</ele>
        <time>2014-02-20T10:54:57.000Z</time>
      </trkpt>
      <trkpt lat="45.92702" lon="6.49456">
        <ele>1541</ele>
        <time>2014-02-20T10:55:57.000Z</time>
      </trkpt>
      <trkpt lat="45.92697" lon="6.49453">
        <ele>1527</ele>
        <time>2014-02-20T10:56:07.000Z</time>
      </trkpt>
      <trkpt lat="45.92698" lon="6.49452">
        <ele>1541</ele>
        <time>2014-02-20T10:56:37.000Z</time>
      </trkpt>
      <trkpt lat="45.92704" lon="6.49452">
        <ele>1537</ele>
        <time>2014-02-20T10:56:47.000Z</time>
      </trkpt>
      <trkpt lat="45.92711" lon="6.49458">
        <ele>1544</ele>
        <time>2014-02-20T10:56:57.000Z</time>
      </trkpt>
      <trkpt lat="45.92723" lon="6.49458">
        <ele>1535</ele>
        <time>2014-02-20T10:57:07.000Z</time>
      </trkpt>
      <trkpt lat="45.92732" lon="6.4943">
        <ele>1543</ele>
        <time>2014-02-20T10:57:17.000Z</time>
      </trkpt>
      <trkpt lat="45.92719" lon="6.49368">
        <ele>1545</ele>
        <time>2014-02-20T10:57:27.000Z</time>
      </trkpt>
      <trkpt lat="45.92701" lon="6.49301">
        <ele>1536</ele>
        <time>2014-02-20T10:57:37.000Z</time>
      </trkpt>
      <trkpt lat="45.92654" lon="6.49264">
        <ele>1535</ele>
        <time>2014-02-20T10:57:47.000Z</time>
      </trkpt>
      <trkpt lat="45.92639" lon="6.49257">
        <ele>1532</ele>
        <time>2014-02-20T10:57:57.000Z</time>
      </trkpt>
      <trkpt lat="45.92637" lon="6.49254">
        <ele>1539</ele>
        <time>2014-02-20T10:58:17.000Z</time>
      </trkpt>
      <trkpt lat="45.92629" lon="6.4925">
        <ele>1536</ele>
        <time>2014-02-20T10:58:27.000Z</time>
      </trkpt>
      <trkpt lat="45.92621" lon="6.49239">
        <ele>1540</ele>
        <time>2014-02-20T10:58:37.000Z</time>
      </trkpt>
      <trkpt lat="45.92614" lon="6.49232">
        <ele>1537</ele>
        <time>2014-02-20T10:58:47.000Z</time>
      </trkpt>
      <trkpt lat="45.92607" lon="6.49226">
        <ele>1542</ele>
        <time>2014-02-20T10:58:57.000Z</time>
      </trkpt>
      <trkpt lat="45.92599" lon="6.49224">
        <ele>1543</ele>
        <time>2014-02-20T10:59:07.000Z</time>
      </trkpt>
      <trkpt lat="45.92593" lon="6.49224">
        <ele>1543</ele>
        <time>2014-02-20T10:59:17.000Z</time>
      </trkpt>
      <trkpt lat="45.92582" lon="6.49224">
        <ele>1546</ele>
        <time>2014-02-20T10:59:27.000Z</time>
      </trkpt>
      <trkpt lat="45.92571" lon="6.4922">
        <ele>1548</ele>
        <time>2014-02-20T10:59:37.000Z</time>
      </trkpt>
      <trkpt lat="45.92564" lon="6.49218">
        <ele>1547</ele>
        <time>2014-02-20T10:59:47.000Z</time>
      </trkpt>
      <trkpt lat="45.92549" lon="6.49216">
        <ele>1544</ele>
        <time>2014-02-20T10:59:57.000Z</time>
      </trkpt>
      <trkpt lat="45.92542" lon="6.49219">
        <ele>1546</ele>
        <time>2014-02-20T11:00:07.000Z</time>
      </trkpt>
      <trkpt lat="45.92533" lon="6.49216">
        <ele>1543</ele>
        <time>2014-02-20T11:00:17.000Z</time>
      </trkpt>
      <trkpt lat="45.92527" lon="6.49209">
        <ele>1554</ele>
        <time>2014-02-20T11:00:27.000Z</time>
      </trkpt>
      <trkpt lat="45.92528" lon="6.49207">
        <ele>1552</ele>
        <time>2014-02-20T11:00:57.000Z</time>
      </trkpt>
      <trkpt lat="45.92522" lon="6.49193">
        <ele>1545</ele>
        <time>2014-02-20T11:01:07.000Z</time>
      </trkpt>
      <trkpt lat="45.92498" lon="6.49161">
        <ele>1541</ele>
        <time>2014-02-20T11:01:17.000Z</time>
      </trkpt>
      <trkpt lat="45.92481" lon="6.49128">
        <ele>1539</ele>
        <time>2014-02-20T11:01:27.000Z</time>
      </trkpt>
      <trkpt lat="45.92463" lon="6.49106">
        <ele>1540</ele>
        <time>2014-02-20T11:01:37.000Z</time>
      </trkpt>
      <trkpt lat="45.9244" lon="6.49095">
        <ele>1536</ele>
        <time>2014-02-20T11:01:47.000Z</time>
      </trkpt>
      <trkpt lat="45.92393" lon="6.49087">
        <ele>1538</ele>
        <time>2014-02-20T11:01:57.000Z</time>
      </trkpt>
      <trkpt lat="45.92342" lon="6.49057">
        <ele>1532</ele>
        <time>2014-02-20T11:02:07.000Z</time>
      </trkpt>
      <trkpt lat="45.92295" lon="6.49003">
        <ele>1531</ele>
        <time>2014-02-20T11:02:17.000Z</time>
      </trkpt>
      <trkpt lat="45.92228" lon="6.48937">
        <ele>1511</ele>
        <time>2014-02-20T11:02:27.000Z</time>
      </trkpt>
      <trkpt lat="45.92169" lon="6.48884">
        <ele>1499</ele>
        <time>2014-02-20T11:02:37.000Z</time>
      </trkpt>
      <trkpt lat="45.92162" lon="6.48849">
        <ele>1497</ele>
        <time>2014-02-20T11:02:47.000Z</time>
      </trkpt>
      <trkpt lat="45.92165" lon="6.48851">
        <ele>1502</ele>
        <time>2014-02-20T11:03:07.000Z</time>
      </trkpt>
      <trkpt lat="45.92169" lon="6.48845">
        <ele>1503</ele>
        <time>2014-02-20T11:03:17.000Z</time>
      </trkpt>
      <trkpt lat="45.92175" lon="6.48834">
        <ele>1505</ele>
        <time>2014-02-20T11:03:27.000Z</time>
      </trkpt>
      <trkpt lat="45.92179" lon="6.48819">
        <ele>1504</ele>
        <time>2014-02-20T11:03:37.000Z</time>
      </trkpt>
      <trkpt lat="45.92178" lon="6.48801">
        <ele>1504</ele>
        <time>2014-02-20T11:03:47.000Z</time>
      </trkpt>
      <trkpt lat="45.92175" lon="6.48788">
        <ele>1506</ele>
        <time>2014-02-20T11:03:57.000Z</time>
      </trkpt>
      <trkpt lat="45.92171" lon="6.48773">
        <ele>1507</ele>
        <time>2014-02-20T11:04:07.000Z</time>
      </trkpt>
      <trkpt lat="45.92169" lon="6.48758">
        <ele>1501</ele>
        <time>2014-02-20T11:04:17.000Z</time>
      </trkpt>
      <trkpt lat="45.92168" lon="6.4875">
        <ele>1510</ele>
        <time>2014-02-20T11:04:27.000Z</time>
      </trkpt>
      <trkpt lat="45.92163" lon="6.48735">
        <ele>1507</ele>
        <time>2014-02-20T11:04:37.000Z</time>
      </trkpt>
      <trkpt lat="45.92158" lon="6.48722">
        <ele>1510</ele>
        <time>2014-02-20T11:04:47.000Z</time>
      </trkpt>
      <trkpt lat="45.92152" lon="6.48706">
        <ele>1510</ele>
        <time>2014-02-20T11:04:57.000Z</time>
      </trkpt>
      <trkpt lat="45.92144" lon="6.487">
        <ele>1518</ele>
        <time>2014-02-20T11:05:07.000Z</time>
      </trkpt>
      <trkpt lat="45.9214" lon="6.48688">
        <ele>1514</ele>
        <time>2014-02-20T11:05:17.000Z</time>
      </trkpt>
      <trkpt lat="45.92139" lon="6.48687">
        <ele>1513</ele>
        <time>2014-02-20T11:05:57.000Z</time>
      </trkpt>
      <trkpt lat="45.92124" lon="6.48653">
        <ele>1511</ele>
        <time>2014-02-20T11:06:07.000Z</time>
      </trkpt>
      <trkpt lat="45.92134" lon="6.48618">
        <ele>1512</ele>
        <time>2014-02-20T11:06:17.000Z</time>
      </trkpt>
      <trkpt lat="45.92151" lon="6.48586">
        <ele>1513</ele>
        <time>2014-02-20T11:06:27.000Z</time>
      </trkpt>
      <trkpt lat="45.92173" lon="6.4853">
        <ele>1508</ele>
        <time>2014-02-20T11:06:37.000Z</time>
      </trkpt>
      <trkpt lat="45.92221" lon="6.48461">
        <ele>1504</ele>
        <time>2014-02-20T11:06:47.000Z</time>
      </trkpt>
      <trkpt lat="45.92251" lon="6.48412">
        <ele>1495</ele>
        <time>2014-02-20T11:06:57.000Z</time>
      </trkpt>
      <trkpt lat="45.92277" lon="6.48401">
        <ele>1495</ele>
        <time>2014-02-20T11:07:07.000Z</time>
      </trkpt>
      <trkpt lat="45.92277" lon="6.48402">
        <ele>1495</ele>
        <time>2014-02-20T11:09:17.000Z</time>
      </trkpt>
      <trkpt lat="45.92273" lon="6.48398">
        <ele>1493</ele>
        <time>2014-02-20T11:09:27.000Z</time>
      </trkpt>
      <trkpt lat="45.92273" lon="6.48398">
        <ele>1493</ele>
        <time>2014-02-20T11:11:47.000Z</time>
      </trkpt>
      <trkpt lat="45.92278" lon="6.48408">
        <ele>1490</ele>
        <time>2014-02-20T11:11:57.000Z</time>
      </trkpt>
      <trkpt lat="45.92277" lon="6.48408">
        <ele>1494</ele>
        <time>2014-02-20T11:13:17.000Z</time>
      </trkpt>
      <trkpt lat="45.92286" lon="6.48389">
        <ele>1509</ele>
        <time>2014-02-20T11:13:27.000Z</time>
      </trkpt>
      <trkpt lat="45.92304" lon="6.48408">
        <ele>1496</ele>
        <time>2014-02-20T11:13:37.000Z</time>
      </trkpt>
      <trkpt lat="45.92287" lon="6.48413">
        <ele>1502</ele>
        <time>2014-02-20T11:13:47.000Z</time>
      </trkpt>
      <trkpt lat="45.92285" lon="6.4841">
        <ele>1495</ele>
        <time>2014-02-20T11:13:57.000Z</time>
      </trkpt>
      <trkpt lat="45.92284" lon="6.48407">
        <ele>1503</ele>
        <time>2014-02-20T11:14:06.000Z</time>
      </trkpt>
      <trkpt lat="45.92281" lon="6.48409">
        <ele>1501</ele>
        <time>2014-02-20T11:14:36.000Z</time>
      </trkpt>
    </trkseg>
  </trk>
</gpx>